
Distance (Route):
Temperature : -46.2°C
Humidity : 69.9%
Pressure : 306.9hPa| Receiver | Frames | First received | Last received |
|---|---|---|---|
| DL1XH-west | 223 | 2026-09-01 23:53:41 | 2026-09-02 00:33:27 |
| DM0DOS-11 | 102 | 2026-09-02 00:03:22 | 2026-09-02 00:29:33 |
| DJ2DS-15 | 82 | 2026-09-01 23:45:21 | 2026-09-02 00:34:51 |
| BIOWL1-15 | 28 | 2026-09-02 00:18:40 | 2026-09-02 00:24:13 |
| BIOWL9-15 | 3 | 2026-09-02 00:19:55 | 2026-09-02 00:20:57 |
| DL1XH-15 | 2 | 2026-09-02 00:21:02 | 2026-09-02 00:21:10 |
| Receiver | Date | Latitude | Longitude | Direction | Speed | Altitude | Climb | Temperature | Humidity | Pressure | Voltage | Killtimer | Uptime | BKT | XDATA |
|---|---|---|---|---|---|---|---|---|---|---|---|---|---|---|---|
| DJ2DS-15 | 2026-09-02 00:34:51 | 56.61426 | 4.70660 | 95° | 78km/h | 9094m | -12.8m/s | -46.2°C | 69.9% | 306.9hPa | 2.4V | 00:00:00 | 01:43:21 | 00:00:00 | |
| DJ2DS-15 | 2026-09-02 00:34:31 | 56.61453 | 4.69940 | 93° | 80km/h | 9353m | -12.8m/s | -48.5°C | 74.8% | 295.0hPa | 2.4V | 00:00:00 | 01:43:01 | 00:00:00 | |
| DJ2DS-15 | 2026-09-02 00:34:11 | 56.61439 | 4.69213 | 85° | 78km/h | 9634m | -13.5m/s | -50.4°C | 72.5% | 282.7hPa | 2.4V | 00:00:00 | 01:42:41 | 00:00:00 | |
| DJ2DS-15 | 2026-09-02 00:33:51 | 56.61372 | 4.68506 | 80° | 80km/h | 9907m | -13.5m/s | -52.6°C | 75.0% | 270.9hPa | 2.4V | 00:00:00 | 01:42:21 | 00:00:00 | |
| DL1XH-west | 2026-09-02 00:33:27 | 56.61289 | 4.67647 | 75° | 77km/h | 10242m | -14.9m/s | -55.2°C | 71.2% | 257.3hPa | 2.4V | 08:20:55 | 01:41:57 | 00:00:00 | |
| DL1XH-west | 2026-09-02 00:33:17 | 56.61234 | 4.67309 | 72° | 78km/h | 10376m | -12.3m/s | -56.2°C | 68.7% | 251.9hPa | 2.4V | 08:20:55 | 01:41:47 | 00:00:00 | |
| DL1XH-west | 2026-09-02 00:33:07 | 56.61160 | 4.66920 | 72° | 86km/h | 10520m | -13.7m/s | -57.1°C | 58.7% | 246.3hPa | 2.4V | 08:20:55 | 01:41:36 | 00:00:00 | |
| DL1XH-west | 2026-09-02 00:32:56 | 56.61096 | 4.66549 | 75° | 84km/h | 10646m | -13m/s | -57.8°C | 42.4% | 241.3hPa | 2.5V | 08:20:55 | 01:41:26 | 00:00:00 | |
| DL1XH-west | 2026-09-02 00:32:46 | 56.61044 | 4.66122 | 83° | 91km/h | 10782m | -13.9m/s | -56.7°C | 24.4% | 236.2hPa | 2.5V | 08:20:55 | 01:41:15 | 00:00:00 | |
| DL1XH-west | 2026-09-02 00:32:35 | 56.61017 | 4.65684 | 85° | 84km/h | 10924m | -14m/s | -57.3°C | 15% | 230.9hPa | 2.5V | 08:21:46 | 01:41:04 | 00:00:00 | |
| DL1XH-west | 2026-09-02 00:32:24 | 56.61009 | 4.65266 | 92° | 84km/h | 11070m | -12.9m/s | -54.8°C | 7.7% | 225.7hPa | 2.4V | 08:21:46 | 01:40:53 | 00:00:00 | |
| DL1XH-west | 2026-09-02 00:32:13 | 56.61000 | 4.64867 | 86° | 75km/h | 11217m | -14.7m/s | -53.3°C | 4.7% | 220.6hPa | 2.4V | 08:21:46 | 01:40:42 | 00:00:00 | |
| DL1XH-west | 2026-09-02 00:32:01 | 56.60991 | 4.64483 | 91° | 78km/h | 11371m | -16.7m/s | -50.4°C | 2.9% | 215.3hPa | 2.4V | 08:21:46 | 01:40:31 | 00:00:00 | |
| DL1XH-west | 2026-09-02 00:31:51 | 56.60996 | 4.64097 | 90° | 75km/h | 11531m | -11.7m/s | -50.5°C | 2.1% | 210.2hPa | 2.4V | 08:21:46 | 01:40:20 | 00:00:00 | |
| DL1XH-west | 2026-09-02 00:31:39 | 56.61001 | 4.63739 | 93° | 66km/h | 11688m | -14.4m/s | -48.7°C | 1.4% | 205.3hPa | 2.4V | 08:22:37 | 01:40:09 | 00:00:00 | |
| DL1XH-west | 2026-09-02 00:31:28 | 56.61003 | 4.63425 | 91° | 60km/h | 11845m | -15.6m/s | -48.5°C | 1% | 200.4hPa | 2.4V | 08:22:37 | 01:39:58 | 00:00:00 | |
| DL1XH-west | 2026-09-02 00:31:17 | 56.60998 | 4.63105 | 86° | 66km/h | 12004m | -15.3m/s | -47.6°C | 0.7% | 195.6hPa | 2.4V | 08:22:37 | 01:39:47 | 00:00:00 | |
| DL1XH-west | 2026-09-02 00:31:07 | 56.60987 | 4.62741 | 88° | 66km/h | 12178m | -14m/s | -48.2°C | 0.7% | 190.5hPa | 2.4V | 08:22:37 | 01:39:35 | 00:00:00 | |
| DL1XH-west | 2026-09-02 00:30:55 | 56.60972 | 4.62457 | 84° | 60km/h | 12323m | -15.6m/s | -47.9°C | 0.6% | 186.3hPa | 2.4V | 08:23:28 | 01:39:25 | 00:00:00 | |
| DL1XH-west | 2026-09-02 00:30:45 | 56.60952 | 4.62135 | 85° | 68km/h | 12493m | -16.5m/s | -48.1°C | 0.5% | 181.6hPa | 2.5V | 08:23:28 | 01:39:14 | 00:00:00 | |
| DL1XH-west | 2026-09-02 00:30:34 | 56.60941 | 4.61792 | 92° | 71km/h | 12660m | -14.3m/s | -48.3°C | 0.5% | 177.1hPa | 2.5V | 08:23:28 | 01:39:03 | 00:00:00 | |
| DL1XH-west | 2026-09-02 00:30:23 | 56.60951 | 4.61436 | 99° | 69km/h | 12827m | -16.1m/s | -48.6°C | 0.5% | 172.5hPa | 2.5V | 08:23:28 | 01:38:52 | 00:00:00 | |
| DL1XH-west | 2026-09-02 00:30:11 | 56.60975 | 4.61121 | 97° | 60km/h | 12993m | -14.7m/s | -48.3°C | 0.3% | 168.3hPa | 2.5V | 08:23:28 | 01:38:41 | 00:00:00 | |
| DL1XH-west | 2026-09-02 00:30:00 | 56.60986 | 4.60841 | 92° | 49km/h | 13164m | -15m/s | -48.4°C | 0.4% | 164hPa | 2.5V | 08:24:19 | 01:38:30 | 00:00:00 | |
| DL1XH-west | 2026-09-02 00:29:50 | 56.60992 | 4.60585 | 96° | 53km/h | 13325m | -14m/s | -48.9°C | 0.5% | 160.1hPa | 2.5V | 08:24:19 | 01:38:19 | 00:00:00 | |
| DL1XH-west | 2026-09-02 00:29:39 | 56.61000 | 4.60324 | 91° | 53km/h | 13491m | -12.8m/s | -49.2°C | 0.6% | 156.1hPa | 2.4V | 08:24:19 | 01:38:08 | 00:00:00 | |
| DM0DOS-11 | 2026-09-02 00:29:33 | 56.61003 | 4.60096 | 91° | 55km/h | 13619m | -14.2m/s | -49.4°C | 3.7% | 153hPa | 2.4V | 08:24:05 | 01:37:59 | 00:00:00 | |
| DL1XH-west | 2026-09-02 00:29:28 | 56.61003 | 4.60047 | 93° | 53km/h | 13649m | -14.4m/s | -49.1°C | 0.5% | 152.4hPa | 2.4V | 08:24:19 | 01:37:57 | 00:00:00 | |
| DM0DOS-11 | 2026-09-02 00:29:21 | 56.61005 | 4.59773 | 87° | 57km/h | 13816m | -15.6m/s | -49.1°C | 3.6% | 148.5hPa | 2.4V | 08:24:18 | 01:37:46 | 00:00:00 | |
| DL1XH-west | 2026-09-02 00:29:17 | 56.61006 | 4.59773 | 87° | 57km/h | 13816m | -15.6m/s | -49.1°C | 0.4% | 148.5hPa | 2.4V | 08:24:19 | 01:37:46 | 00:00:00 | |
| DL1XH-west | 2026-09-02 00:29:06 | 56.60995 | 4.59477 | 86° | 64km/h | 13991m | -14.5m/s | -49.2°C | 0.4% | 144.6hPa | 2.4V | 08:25:10 | 01:37:35 | 00:00:00 | |
| DM0DOS-11 | 2026-09-02 00:28:56 | 56.60990 | 4.59092 | 90° | 68km/h | 14193m | -14.7m/s | -48.2°C | 3.4% | 140.2hPa | 2.5V | 08:24:42 | 01:37:22 | 00:00:00 | |
| DL1XH-west | 2026-09-02 00:28:55 | 56.60990 | 4.59151 | 91° | 64km/h | 14163m | -15.3m/s | -48.5°C | 0.3% | 140.9hPa | 2.4V | 08:25:10 | 01:37:24 | 00:00:00 | |
| DJ2DS-15 | 2026-09-02 00:28:48 | 56.60987 | 4.58969 | 85° | 58km/h | 14252m | -15.9m/s | -47.7°C | 3.3% | 138.9hPa | 2.4V | 00:00:00 | 01:37:18 | 00:00:00 | |
| DM0DOS-11 | 2026-09-02 00:28:46 | 56.60977 | 4.58788 | 83° | 64km/h | 14348m | -16.1m/s | -48.2°C | 3.4% | 137hPa | 2.4V | 08:24:52 | 01:37:12 | 00:00:00 | |
| DL1XH-west | 2026-09-02 00:28:45 | 56.60979 | 4.58818 | 84° | 66km/h | 14331m | -16.2m/s | -48.1°C | 0.2% | 137.3hPa | 2.4V | 08:25:10 | 01:37:13 | 00:00:00 | |
| DM0DOS-11 | 2026-09-02 00:28:36 | 56.60976 | 4.58536 | 97° | 49km/h | 14495m | -12.6m/s | -46.8°C | 3.1% | 133.9hPa | 2.4V | 08:25:02 | 01:37:02 | 00:00:00 | |
| DL1XH-west | 2026-09-02 00:28:32 | 56.60977 | 4.58536 | 98° | 49km/h | 14495m | -12.6m/s | -46.8°C | 0.1% | 134hPa | 2.4V | 08:25:10 | 01:37:02 | 00:00:00 | |
| DJ2DS-15 | 2026-09-02 00:28:28 | 56.60985 | 4.58449 | 105° | 40km/h | 14558m | -16.2m/s | -46.6°C | 3.0% | 132.7hPa | 2.4V | 00:00:00 | 01:36:58 | 00:00:00 | |
| DM0DOS-11 | 2026-09-02 00:28:26 | 56.61001 | 4.58329 | 102° | 40km/h | 14645m | -16.7m/s | -46.5°C | 3% | 131hPa | 2.4V | 08:25:12 | 01:36:52 | 00:00:00 | |
| DL1XH-west | 2026-09-02 00:28:21 | 56.61003 | 4.58311 | 101° | 40km/h | 14661m | -15.7m/s | -46.4°C | 0% | 130.7hPa | 2.4V | 08:26:01 | 01:36:51 | 00:00:00 | |
| DL1XH-west | 2026-09-02 00:28:11 | 56.61000 | 4.58118 | 80° | 42km/h | 14824m | -15.6m/s | -46.8°C | 0.1% | 127.5hPa | 2.4V | 08:26:01 | 01:36:40 | 00:00:00 | |
| DJ2DS-15 | 2026-09-02 00:28:08 | 56.60997 | 4.58079 | 82° | 42km/h | 14854m | -16.9m/s | -46.9°C | 3.1% | 126.8hPa | 2.5V | 00:00:00 | 01:36:38 | 00:00:00 | |
| DM0DOS-11 | 2026-09-02 00:28:06 | 56.60987 | 4.57951 | 84° | 47km/h | 14953m | -17.6m/s | -47.2°C | 3.1% | 125hPa | 2.5V | 08:25:32 | 01:36:32 | 00:00:00 | |
| DL1XH-west | 2026-09-02 00:27:59 | 56.60985 | 4.57888 | 89° | 42km/h | 15003m | -15.3m/s | -47.2°C | 0.1% | 124hPa | 2.4V | 08:26:01 | 01:36:29 | 00:00:00 | |
| DM0DOS-11 | 2026-09-02 00:27:56 | 56.60989 | 4.57761 | 99° | 38km/h | 15111m | -16.1m/s | -47.2°C | 3% | 122hPa | 2.5V | 08:25:42 | 01:36:22 | 00:00:00 | |
| DL1XH-west | 2026-09-02 00:27:49 | 56.60994 | 4.57708 | 101° | 38km/h | 15160m | -14.8m/s | -47.3°C | 0% | 121.1hPa | 2.4V | 08:26:01 | 01:36:19 | 00:00:00 | |
| DJ2DS-15 | 2026-09-02 00:27:48 | 56.60996 | 4.57690 | 100° | 46km/h | 15175m | -15.3m/s | -47.3°C | 3.0% | 120.8hPa | 2.4V | 00:00:00 | 01:36:18 | 00:00:00 | |
| DM0DOS-11 | 2026-09-02 00:27:46 | 56.61006 | 4.57582 | 99° | 42km/h | 15267m | -17.3m/s | -48.2°C | 3.2% | 119.2hPa | 2.4V | 08:25:52 | 01:36:12 | 00:00:00 | |
| DL1XH-west | 2026-09-02 00:27:39 | 56.61012 | 4.57523 | 100° | 44km/h | 15317m | -16m/s | -48.7°C | 0.3% | 118.3hPa | 2.5V | 08:26:01 | 01:36:09 | 00:00:00 | |
| DM0DOS-11 | 2026-09-02 00:27:36 | 56.61031 | 4.57353 | 102° | 51km/h | 15444m | -14.1m/s | -49.8°C | 3.6% | 116hPa | 2.4V | 08:26:03 | 01:36:01 | 00:00:00 | |
| DL1XH-west | 2026-09-02 00:27:28 | 56.61040 | 4.57284 | 104° | 51km/h | 15491m | -15.5m/s | -49.5°C | 0.4% | 115.2hPa | 2.4V | 08:26:52 | 01:35:58 | 00:00:00 | |
| DJ2DS-15 | 2026-09-02 00:27:28 | 56.61040 | 4.57284 | 104° | 42km/h | 15491m | -15.5m/s | -49.4°C | 3.6% | 115.1hPa | 2.4V | 08:26:00 | 01:35:58 | 00:00:00 | |
| DM0DOS-11 | 2026-09-02 00:27:26 | 56.61060 | 4.57136 | 103° | 44km/h | 15603m | -16.4m/s | -49.1°C | 3.4% | 113.2hPa | 2.4V | 08:26:13 | 01:35:51 | 00:00:00 | |
| DL1XH-west | 2026-09-02 00:27:18 | 56.61065 | 4.57061 | 94° | 40km/h | 15667m | -17.4m/s | -49.3°C | 0.3% | 112.1hPa | 2.5V | 08:26:52 | 01:35:47 | 00:00:00 | |
| DL1XH-west | 2026-09-02 00:27:07 | 56.61052 | 4.56868 | 88° | 40km/h | 15842m | -14.1m/s | -49.4°C | 0.4% | 109.1hPa | 2.4V | 08:26:52 | 01:35:36 | 00:00:00 | |
| DM0DOS-11 | 2026-09-02 00:27:06 | 56.61057 | 4.56774 | 101° | 44km/h | 15921m | -16.8m/s | -49.5°C | 3.4% | 107.9hPa | 2.5V | 08:26:33 | 01:35:31 | 00:00:00 | |
| DM0DOS-11 | 2026-09-02 00:26:56 | 56.61074 | 4.56577 | 93° | 44km/h | 16079m | -16.1m/s | -49.6°C | 3.5% | 105.3hPa | 2.5V | 08:26:43 | 01:35:21 | 00:00:00 | |
| DL1XH-west | 2026-09-02 00:26:56 | 56.61070 | 4.56656 | 99° | 46km/h | 16013m | -14.2m/s | -49.9°C | 0.4% | 106.3hPa | 2.5V | 08:26:52 | 01:35:25 | 00:00:00 | |
| DJ2DS-15 | 2026-09-02 00:26:49 | 56.61076 | 4.56517 | 92° | 57km/h | 16125m | -16.4m/s | -49.9°C | 3.6% | 104.4hPa | 2.4V | 00:00:00 | 01:35:18 | 00:00:00 | |
| DM0DOS-11 | 2026-09-02 00:26:45 | 56.61076 | 4.56365 | 86° | 51km/h | 16236m | -15.3m/s | -50.4°C | 3.8% | 102.8hPa | 2.4V | 08:26:53 | 01:35:11 | 00:00:00 | |
| DL1XH-west | 2026-09-02 00:26:44 | 56.61078 | 4.56434 | 90° | 49km/h | 16190m | -17.2m/s | -50.3°C | 0.5% | 103.5hPa | 2.4V | 08:26:52 | 01:35:14 | 00:00:00 | |
| DM0DOS-11 | 2026-09-02 00:26:35 | 56.61063 | 4.56093 | 86° | 64km/h | 16392m | -16.3m/s | -49.1°C | 3.5% | 100.3hPa | 2.4V | 08:27:03 | 01:35:01 | 00:00:00 | |
| DL1XH-west | 2026-09-02 00:26:34 | 56.61064 | 4.56121 | 86° | 62km/h | 16376m | -16.4m/s | -49.3°C | 0.4% | 100.5hPa | 2.4V | 08:27:43 | 01:35:02 | 00:00:00 | |
| DJ2DS-15 | 2026-09-02 00:26:31 | 56.61062 | 4.56064 | 87° | 60km/h | 16407m | -15.5m/s | -49.1°C | 1.1% | 100.1hPa | 2.5V | 00:00:00 | 00:00:00 | 00:00:00 | |
| DJ2DS-15 | 2026-09-02 00:26:28 | 56.61060 | 4.56008 | 89° | 44km/h | 16439m | -15.9m/s | -49.2°C | 3.5% | 99.6hPa | 2.5V | 00:00:00 | 01:34:58 | 00:00:00 | |
| DM0DOS-11 | 2026-09-02 00:26:25 | 56.61068 | 4.55841 | 101° | 44km/h | 16547m | -14.7m/s | -47.9°C | 3.1% | 98hPa | 2.5V | 08:27:13 | 01:34:51 | 00:00:00 | |
| DL1XH-west | 2026-09-02 00:26:21 | 56.61068 | 4.55841 | 102° | 44km/h | 16547m | -14.7m/s | -47.9°C | 0.1% | 98hPa | 2.5V | 08:27:43 | 01:34:51 | 00:00:00 | |
| DM0DOS-11 | 2026-09-02 00:26:15 | 56.61100 | 4.55675 | 115° | 35km/h | 16703m | -16.2m/s | -48.5°C | 3.2% | 95.7hPa | 2.5V | 08:27:23 | 01:34:41 | 00:00:00 | |
| DL1XH-west | 2026-09-02 00:26:11 | 56.61104 | 4.55661 | 114° | 35km/h | 16719m | -15.8m/s | -48.6°C | 0.1% | 95.5hPa | 2.4V | 08:27:43 | 01:34:40 | 00:00:00 | |
| DJ2DS-15 | 2026-09-02 00:26:08 | 56.61110 | 4.55634 | 115° | 33km/h | 16752m | -16.6m/s | -48.5°C | 3.2% | 95.0hPa | 2.4V | 00:00:00 | 01:34:38 | 00:00:00 | |
| DM0DOS-11 | 2026-09-02 00:26:05 | 56.61121 | 4.55549 | 96° | 27km/h | 16866m | -17m/s | -48.8°C | 3.2% | 93.3hPa | 2.4V | 08:27:33 | 01:34:31 | 00:00:00 | |
| DL1XH-west | 2026-09-02 00:26:01 | 56.61122 | 4.55537 | 95° | 27km/h | 16883m | -16.8m/s | -48.8°C | 0.2% | 93.1hPa | 2.6V | 08:27:43 | 01:34:30 | 00:00:00 | |
| DJ2DS-15 | 2026-09-02 00:25:55 | 56.61126 | 4.55451 | 94° | 35km/h | 16977m | -17.0m/s | -49.3°C | 1.0% | 91.8hPa | 2.4V | 00:00:00 | 00:00:00 | 00:00:00 | |
| DM0DOS-11 | 2026-09-02 00:25:51 | 56.61135 | 4.55293 | 98° | 47km/h | 17111m | -18.5m/s | -50°C | 3.6% | 89.9hPa | 2.4V | 08:27:48 | 01:34:16 | 00:00:00 | |
| DL1XH-west | 2026-09-02 00:25:50 | 56.61130 | 4.55378 | 97° | 44km/h | 17044m | -18.9m/s | -49.7°C | 0.3% | 90.9hPa | 2.4V | 08:28:34 | 01:34:20 | 00:00:00 | |
| DJ2DS-15 | 2026-09-02 00:25:48 | 56.61133 | 4.55336 | 97° | 38km/h | 17079m | -16.0m/s | -49.8°C | 3.5% | 90.3hPa | 2.4V | 00:00:00 | 01:34:18 | 00:00:00 | |
| DM0DOS-11 | 2026-09-02 00:25:41 | 56.61153 | 4.55107 | 100° | 33km/h | 17280m | -18.4m/s | -49.7°C | 3.6% | 87.6hPa | 2.4V | 08:27:58 | 01:34:06 | 00:00:00 | |
| DL1XH-west | 2026-09-02 00:25:40 | 56.61149 | 4.55155 | 101° | 35km/h | 17229m | -16.4m/s | -49.6°C | 0.4% | 88.3hPa | 2.4V | 08:28:34 | 01:34:09 | 00:00:00 | |
| DM0DOS-11 | 2026-09-02 00:25:31 | 56.61158 | 4.54963 | 94° | 35km/h | 17442m | -19.7m/s | -49.7°C | 3.6% | 85.5hPa | 2.6V | 08:28:08 | 01:33:56 | 00:00:00 | |
| DL1XH-west | 2026-09-02 00:25:28 | 56.61158 | 4.54992 | 90° | 31km/h | 17409m | -18.5m/s | -50.1°C | 0.4% | 85.9hPa | 2.4V | 08:28:34 | 01:33:58 | 00:00:00 | |
| DJ2DS-15 | 2026-09-02 00:25:28 | 56.61158 | 4.54992 | 90° | 37km/h | 17409m | -18.4m/s | -50.0°C | 3.7% | 85.8hPa | 2.4V | 00:00:00 | 01:33:58 | 00:00:00 | |
| DM0DOS-11 | 2026-09-02 00:25:21 | 56.61154 | 4.54790 | 82° | 40km/h | 17601m | -17.5m/s | -49.1°C | 3.4% | 83.4hPa | 2.4V | 08:28:18 | 01:33:46 | 00:00:00 | |
| DL1XH-west | 2026-09-02 00:25:18 | 56.61156 | 4.54827 | 83° | 38km/h | 17568m | -16m/s | -49.1°C | 0.3% | 83.8hPa | 2.4V | 08:28:34 | 01:33:48 | 00:00:00 | |
| DM0DOS-11 | 2026-09-02 00:25:11 | 56.61144 | 4.54631 | 89° | 26km/h | 17766m | -17.7m/s | -49°C | 3.4% | 81.4hPa | 2.4V | 08:28:28 | 01:33:36 | 00:00:00 | |
| DL1XH-west | 2026-09-02 00:25:07 | 56.61144 | 4.54643 | 89° | 29km/h | 17749m | -17.8m/s | -49°C | 0.2% | 81.5hPa | 2.4V | 08:28:34 | 01:33:37 | 00:00:00 | |
| DL1XH-west | 2026-09-02 00:24:57 | 56.61133 | 4.54521 | 75° | 26km/h | 17931m | -18.4m/s | -49.1°C | 0.2% | 79.3hPa | 2.5V | 08:29:25 | 01:33:26 | 00:00:00 | |
| DL1XH-west | 2026-09-02 00:24:45 | 56.61107 | 4.54342 | 80° | 44km/h | 18103m | -14.7m/s | -49.9°C | 0.4% | 77.3hPa | 2.4V | 08:29:25 | 01:33:15 | 00:00:00 | |
| DM0DOS-11 | 2026-09-02 00:24:35 | 56.61076 | 4.54146 | 70° | 37km/h | 18297m | -15.5m/s | -49.2°C | 3.6% | 75hPa | 2.4V | 08:29:01 | 01:33:03 | 00:00:00 | |
| DL1XH-west | 2026-09-02 00:24:34 | 56.61079 | 4.54162 | 67° | 37km/h | 18281m | -16.4m/s | -49.3°C | 0.5% | 75.2hPa | 2.5V | 08:29:25 | 01:33:04 | 00:00:00 | |
| DM0DOS-11 | 2026-09-02 00:24:28 | 56.61055 | 4.53963 | 88° | 35km/h | 18475m | -15m/s | -48.5°C | 3.4% | 73hPa | 2.4V | 08:29:12 | 01:32:52 | 00:00:00 | |
| DL1XH-west | 2026-09-02 00:24:24 | 56.61056 | 4.53994 | 90° | 35km/h | 18443m | -16.1m/s | -48.5°C | 0.3% | 73.4hPa | 2.5V | 08:29:25 | 01:32:54 | 00:00:00 | |
| DM0DOS-11 | 2026-09-02 00:24:15 | 56.61059 | 4.53815 | 97° | 38km/h | 18621m | -17.3m/s | -47.7°C | 3.2% | 71.4hPa | 2.6V | 08:29:21 | 01:32:43 | 00:00:00 | |
| BIOWL1-15 | 2026-09-02 00:24:13 | 56.61061 | 4.53781 | 99° | 37km/h | 18653m | -16.8m/s | -47.8°C | 0.2% | 71hPa | 2.4V | 08:29:25 | 01:32:41 | 00:00:00 | |
| DL1XH-west | 2026-09-02 00:24:13 | 56.61059 | 4.53815 | 98° | 38km/h | 18621m | -17.3m/s | -47.7°C | 0.1% | 71.4hPa | 2.6V | 08:29:25 | 01:32:43 | 00:00:00 | |
| DJ2DS-15 | 2026-09-02 00:24:07 | 56.61069 | 4.53719 | 105° | 24km/h | 18719m | -16.6m/s | -47.6°C | 3.2% | 70.3hPa | 2.6V | 00:00:00 | 01:32:37 | 00:00:00 | |
| DM0DOS-11 | 2026-09-02 00:24:05 | 56.61076 | 4.53669 | 103° | 24km/h | 18783m | -16.6m/s | -47.6°C | 3.2% | 69.7hPa | 2.6V | 08:30:00 | 01:32:33 | 00:00:00 | |
| DL1XH-west | 2026-09-02 00:24:03 | 56.61076 | 4.53669 | 104° | 24km/h | 18783m | -16.7m/s | -47.6°C | 0.1% | 69.7hPa | 2.6V | 18:12:15 | 01:32:33 | 00:00:00 | |
| BIOWL1-15 | 2026-09-02 00:24:00 | 56.61077 | 4.53602 | 74° | 18km/h | 18894m | -16.8m/s | -48°C | 0.2% | 68.5hPa | 2.4V | 18:12:15 | 01:32:26 | 00:00:00 | |
| DM0DOS-11 | 2026-09-02 00:23:54 | 56.61071 | 4.53577 | 56° | 22km/h | 18941m | -16.4m/s | -47.6°C | 3.2% | 68hPa | 2.6V | 08:30:00 | 01:32:23 | 00:00:00 | |
| DL1XH-west | 2026-09-02 00:23:52 | 56.61068 | 4.53570 | 58° | 20km/h | 18957m | -15.5m/s | -47.5°C | 0.1% | 67.8hPa | 2.5V | 18:12:15 | 01:32:22 | 00:00:00 | |
| BIOWL1-15 | 2026-09-02 00:23:51 | 56.61047 | 4.53517 | 60° | 24km/h | 19063m | -21.5m/s | -48°C | 0.1% | 66.8hPa | 2.6V | 18:12:15 | 01:32:16 | 00:00:00 | |
| DL1XH-west | 2026-09-02 00:23:42 | 56.61037 | 4.53477 | 68° | 24km/h | 19142m | -20.1m/s | -48.5°C | 0.2% | 66hPa | 2.4V | 18:12:15 | 01:32:12 | 00:00:00 | |
| BIOWL1-15 | 2026-09-02 00:23:39 | 56.61030 | 4.53437 | 72° | 22km/h | 19209m | -16.2m/s | -48.6°C | 0.2% | 65.3hPa | 2.4V | 18:12:15 | 01:32:08 | 00:00:00 | |
| DL1XH-west | 2026-09-02 00:23:31 | 56.61017 | 4.53366 | 75° | 24km/h | 19321m | -17.7m/s | -48.8°C | 0.2% | 64.2hPa | 2.6V | 18:12:15 | 01:32:01 | 00:00:00 | |
| BIOWL1-15 | 2026-09-02 00:23:28 | 56.61009 | 4.53324 | 68° | 27km/h | 19388m | -16.5m/s | -49.3°C | 0.3% | 63.5hPa | 2.4V | 18:12:15 | 01:31:57 | 00:00:00 | |
| DJ2DS-15 | 2026-09-02 00:23:27 | 56.61009 | 4.53324 | 68° | 27km/h | 19388m | -16.4m/s | -49.2°C | 3.4% | 63.5hPa | 2.4V | 00:00:00 | 01:31:57 | 00:00:00 | |
| DM0DOS-11 | 2026-09-02 00:23:24 | 56.60996 | 4.53281 | 56° | 27km/h | 19452m | -16.8m/s | -49.7°C | 3.6% | 62.9hPa | 2.5V | 08:30:00 | 01:31:53 | 00:00:00 | |
| DL1XH-west | 2026-09-02 00:23:20 | 56.60984 | 4.53248 | 57° | 29km/h | 19503m | -17.3m/s | -50°C | 0.5% | 62.4hPa | 2.4V | 18:12:15 | 01:31:50 | 00:00:00 | |
| BIOWL1-15 | 2026-09-02 00:23:18 | 56.60974 | 4.53212 | 66° | 31km/h | 19557m | -18.6m/s | -50°C | 0.5% | 61.9hPa | 2.4V | 18:12:15 | 01:31:47 | 00:00:00 | |
| DL1XH-west | 2026-09-02 00:23:11 | 56.60957 | 4.53117 | 78° | 20km/h | 19698m | -15.5m/s | -49.3°C | 0.3% | 60.5hPa | 2.6V | 18:12:15 | 01:31:39 | 00:00:00 | |
| DM0DOS-11 | 2026-09-02 00:23:10 | 56.60954 | 4.53070 | 87° | 20km/h | 19768m | -5.5m/s | -49°C | 3.4% | 59.9hPa | 2.5V | 08:30:00 | 01:31:34 | 00:00:00 | |
| BIOWL1-15 | 2026-09-02 00:23:07 | 56.60954 | 4.53089 | 86° | 20km/h | 19745m | -14.2m/s | -49.1°C | 0.3% | 60.1hPa | 2.4V | 18:12:15 | 01:31:36 | 00:00:00 | |
| DL1XH-west | 2026-09-02 00:22:59 | 56.60955 | 4.53011 | 89° | 18km/h | 19745m | 4.3m/s | -49.2°C | 0.3% | 60.1hPa | 2.5V | 18:12:15 | 01:31:28 | 00:00:00 | |
| BIOWL1-15 | 2026-09-02 00:22:56 | 56.60955 | 4.52992 | 90° | 22km/h | 19735m | 5.3m/s | -49.2°C | 0.3% | 60.2hPa | 2.6V | 18:12:15 | 01:31:26 | 00:00:00 | |
| DJ2DS-15 | 2026-09-02 00:22:54 | 56.60954 | 4.52971 | 78° | 24km/h | 19725m | 5.6m/s | -49.2°C | 1.0% | 60.3hPa | 2.6V | 00:00:00 | 00:00:00 | 00:00:00 | |
| DM0DOS-11 | 2026-09-02 00:22:51 | 56.60939 | 4.52863 | 74° | 29km/h | 19686m | 4.4m/s | -49.9°C | 3.6% | 60.6hPa | 2.6V | 08:30:00 | 01:31:16 | 00:00:00 | |
| DL1XH-west | 2026-09-02 00:22:48 | 56.60943 | 4.52890 | 77° | 33km/h | 19696m | 5.5m/s | -49.7°C | 0.4% | 60.5hPa | 2.5V | 18:12:15 | 01:31:18 | 00:00:00 | |
| BIOWL1-15 | 2026-09-02 00:22:45 | 56.60937 | 4.52850 | 79° | 27km/h | 19681m | 5.6m/s | -50°C | 0.5% | 60.7hPa | 2.5V | 18:12:15 | 01:31:15 | 00:00:00 | |
| DL1XH-west | 2026-09-02 00:22:37 | 56.60927 | 4.52747 | 76° | 33km/h | 19642m | 5.3m/s | -50.2°C | 0.5% | 61hPa | 2.5V | 18:12:15 | 01:31:07 | 00:00:00 | |
| BIOWL1-15 | 2026-09-02 00:22:34 | 56.60920 | 4.52708 | 74° | 27km/h | 19627m | 4.8m/s | -50.3°C | 0.5% | 61.2hPa | 2.6V | 18:12:15 | 01:31:04 | 00:00:00 | |
| DL1XH-west | 2026-09-02 00:22:26 | 56.60897 | 4.52626 | 52° | 33km/h | 19589m | 5.2m/s | -50.1°C | 0.6% | 61.6hPa | 2.5V | 18:12:15 | 01:30:56 | 00:00:00 | |
| BIOWL1-15 | 2026-09-02 00:22:24 | 56.60876 | 4.52558 | 59° | 33km/h | 19565m | 4.9m/s | -50.1°C | 0.5% | 61.8hPa | 2.5V | 18:12:15 | 01:30:51 | 00:00:00 | |
| DL1XH-west | 2026-09-02 00:22:16 | 56.60856 | 4.52500 | 53° | 26km/h | 19540m | 5.2m/s | -50°C | 0.5% | 62hPa | 2.5V | 18:12:15 | 01:30:46 | 00:00:00 | |
| BIOWL1-15 | 2026-09-02 00:22:10 | 56.60822 | 4.52400 | 54° | 33km/h | 19504m | 3.9m/s | -50.1°C | 0.6% | 62.4hPa | 2.6V | 18:12:15 | 01:30:38 | 00:00:00 | |
| DL1XH-west | 2026-09-02 00:22:06 | 56.60809 | 4.52367 | 50° | 26km/h | 19490m | 4.4m/s | -50°C | 0.5% | 62.5hPa | 2.5V | 18:12:15 | 01:30:35 | 00:00:00 | |
| BIOWL1-15 | 2026-09-02 00:21:59 | 56.60789 | 4.52320 | 72° | 24km/h | 19463m | 4.2m/s | -49.8°C | 0.5% | 62.8hPa | 2.5V | 18:12:15 | 01:30:29 | 00:00:00 | |
| DL1XH-west | 2026-09-02 00:21:55 | 56.60779 | 4.52274 | 70° | 29km/h | 19443m | 5.4m/s | -49.7°C | 0.5% | 63hPa | 2.5V | 18:12:15 | 01:30:25 | 00:00:00 | |
| BIOWL1-15 | 2026-09-02 00:21:49 | 56.60747 | 4.52146 | 76° | 24km/h | 19387m | 4.6m/s | -49.2°C | 0.5% | 63.5hPa | 2.5V | 18:12:15 | 01:30:13 | 00:00:00 | |
| DL1XH-west | 2026-09-02 00:21:45 | 56.60751 | 4.52166 | 65° | 24km/h | 19397m | 5m/s | -49.3°C | 0.5% | 63.4hPa | 2.6V | 18:12:15 | 01:30:15 | 00:00:00 | |
| DJ2DS-15 | 2026-09-02 00:21:42 | 56.60745 | 4.52135 | 71° | 26km/h | 19382m | 5.5m/s | -49.2°C | 1.1% | 63.5hPa | 2.6V | 00:00:00 | 00:00:00 | 00:00:00 | |
| BIOWL1-15 | 2026-09-02 00:21:35 | 56.60697 | 4.51830 | 72° | 22km/h | 19248m | 5.2m/s | -48.5°C | 0.4% | 64.8hPa | 2.6V | 18:12:15 | 01:29:44 | 00:00:00 | |
| DL1XH-west | 2026-09-02 00:21:34 | 56.60726 | 4.52045 | 70° | 26km/h | 19346m | 5m/s | -49°C | 0.5% | 63.9hPa | 2.5V | 18:12:15 | 01:30:04 | 00:00:00 | |
| DM0DOS-11 | 2026-09-02 00:21:29 | 56.60707 | 4.51935 | 72° | 22km/h | 19298m | 4.1m/s | -48.7°C | 3.5% | 64.3hPa | 2.6V | 08:30:00 | 01:29:54 | 00:00:00 | |
| DL1XH-west | 2026-09-02 00:21:24 | 56.60708 | 4.51935 | 73° | 22km/h | 19298m | 4.1m/s | -48.7°C | 0.4% | 64.4hPa | 2.6V | 18:12:15 | 01:29:54 | 00:00:00 | |
| DL1XH-west | 2026-09-02 00:21:14 | 56.60695 | 4.51820 | 70° | 22km/h | 19244m | 3.9m/s | -48.5°C | 0.4% | 64.9hPa | 2.6V | 18:12:15 | 01:29:43 | 00:00:00 | |
| DM0DOS-11 | 2026-09-02 00:21:13 | 56.60692 | 4.51802 | 74° | 20km/h | 19234m | 4.3m/s | -48.4°C | 3.4% | 65hPa | 2.5V | 08:30:00 | 01:29:41 | 00:00:00 | |
| DL1XH-15 | 2026-09-02 00:21:10 | 56.60686 | 4.51774 | 69° | 22km/h | 19220m | 3.3m/s | 0°C | 0% | 0hPa | 2.6V | 00:00:00 | 01:29:38 | 00:00:00 | |
| BIOWL1-15 | 2026-09-02 00:21:04 | 56.60673 | 4.51693 | 71° | 22km/h | 19185m | 3.8m/s | -48.5°C | 0.3% | 65.5hPa | 2.5V | 18:12:15 | 01:29:30 | 00:00:00 | |
| DL1XH-west | 2026-09-02 00:21:04 | 56.60678 | 4.51720 | 67° | 24km/h | 19198m | 4.2m/s | -48.4°C | 0.3% | 65.3hPa | 2.5V | 18:12:15 | 01:29:33 | 00:00:00 | |
| DM0DOS-11 | 2026-09-02 00:21:03 | 56.60674 | 4.51703 | 71° | 20km/h | 19189m | 4.5m/s | -48.4°C | 3.4% | 65.4hPa | 2.6V | 08:30:00 | 01:29:31 | 00:00:00 | |
| DL1XH-15 | 2026-09-02 00:21:02 | 56.60666 | 4.51664 | 60° | 24km/h | 19171m | 4m/s | 0°C | 0% | 0hPa | 2.6V | 00:00:00 | 01:29:27 | 00:00:00 | |
| BIOWL9-15 | 2026-09-02 00:20:57 | 56.60665 | 4.51664 | 60° | 24km/h | 19171m | 4.0m/s | -48.6°C | 1.0% | 65.6hPa | 2.6V | 00:00:00 | 00:00:00 | 00:00:00 | |
| DM0DOS-11 | 2026-09-02 00:20:54 | 56.60655 | 4.51604 | 74° | 24km/h | 19143m | 4.2m/s | -48.5°C | 3.4% | 65.9hPa | 2.6V | 08:30:00 | 01:29:21 | 00:00:00 | |
| DL1XH-west | 2026-09-02 00:20:53 | 56.60658 | 4.51624 | 75° | 22km/h | 19152m | 5.2m/s | -48.6°C | 0.4% | 65.8hPa | 2.5V | 18:12:15 | 01:29:23 | 00:00:00 | |
| BIOWL1-15 | 2026-09-02 00:20:52 | 56.60652 | 4.51581 | 76° | 27km/h | 19134m | 3.8m/s | -48.4°C | 0.4% | 66hPa | 2.5V | 18:12:15 | 01:29:19 | 00:00:00 | |
| DJ2DS-15 | 2026-09-02 00:20:47 | 56.60647 | 4.51556 | 65° | 24km/h | 19124m | 4.5m/s | -48.3°C | 3.4% | 66.0hPa | 2.5V | 00:00:00 | 01:29:17 | 00:00:00 | |
| DM0DOS-11 | 2026-09-02 00:20:44 | 56.60631 | 4.51496 | 57° | 20km/h | 19095m | 3.6m/s | -48.1°C | 3.4% | 66.4hPa | 2.5V | 08:30:00 | 01:29:11 | 00:00:00 | |
| DL1XH-west | 2026-09-02 00:20:43 | 56.60636 | 4.51512 | 65° | 22km/h | 19104m | 4.5m/s | -48.2°C | 0.3% | 66.3hPa | 2.5V | 18:12:15 | 01:29:13 | 00:00:00 | |
| BIOWL1-15 | 2026-09-02 00:20:38 | 56.60624 | 4.51471 | 70° | 22km/h | 19082m | 3.4m/s | -48.1°C | 0.3% | 66.5hPa | 2.5V | 18:12:15 | 01:29:08 | 00:00:00 | |
| DM0DOS-11 | 2026-09-02 00:20:33 | 56.60604 | 4.51404 | 55° | 27km/h | 19050m | 4.8m/s | -47.9°C | 3.3% | 66.8hPa | 2.5V | 08:30:00 | 01:29:01 | 00:00:00 | |
| DL1XH-west | 2026-09-02 00:20:32 | 56.60607 | 4.51414 | 60° | 24km/h | 19055m | 3.8m/s | -47.9°C | 0.3% | 66.8hPa | 2.5V | 18:12:15 | 01:29:02 | 00:00:00 | |
| BIOWL1-15 | 2026-09-02 00:20:28 | 56.60590 | 4.51366 | 49° | 24km/h | 19032m | 4.6m/s | -47.9°C | 0.3% | 67hPa | 2.5V | 18:12:15 | 01:28:57 | 00:00:00 | |
| DJ2DS-15 | 2026-09-02 00:20:27 | 56.60590 | 4.51366 | 50° | 20km/h | 19032m | 4.6m/s | -47.8°C | 3.3% | 67.0hPa | 2.5V | 00:00:00 | 01:28:57 | 00:00:00 | |
| BIOWL9-15 | 2026-09-02 00:20:26 | 56.60586 | 4.51358 | 41° | 24km/h | 19028m | 4.5m/s | -47.8°C | 1.0% | -1.0hPa | 2.5V | 00:00:00 | 00:00:00 | 00:00:00 | |
| DM0DOS-11 | 2026-09-02 00:20:22 | 56.60566 | 4.51322 | 47° | 24km/h | 19004m | 5.4m/s | -47.8°C | 3.3% | 67.3hPa | 2.5V | 08:30:00 | 01:28:51 | 00:00:00 | |
| DL1XH-west | 2026-09-02 00:20:21 | 56.60566 | 4.51322 | 48° | 24km/h | 19004m | 5.4m/s | -47.8°C | 0.2% | 67.3hPa | 2.5V | 18:12:15 | 01:28:51 | 00:00:00 | |
| BIOWL1-15 | 2026-09-02 00:20:17 | 56.60538 | 4.51250 | 57° | 18km/h | 18962m | 4.3m/s | -47.6°C | 0.2% | 67.7hPa | 2.6V | 18:12:15 | 01:28:42 | 00:00:00 | |
| DM0DOS-11 | 2026-09-02 00:20:12 | 56.60535 | 4.51243 | 52° | 18km/h | 18957m | 5.7m/s | -47.6°C | 3.3% | 67.8hPa | 2.5V | 08:30:00 | 01:28:41 | 00:00:00 | |
| DL1XH-west | 2026-09-02 00:20:10 | 56.60532 | 4.51236 | 52° | 18km/h | 18952m | 3.7m/s | -47.6°C | 0.2% | 67.8hPa | 2.5V | 18:12:15 | 01:28:40 | 00:00:00 | |
| DJ2DS-15 | 2026-09-02 00:20:05 | 56.60522 | 4.51200 | 69° | 18km/h | 18931m | 4.6m/s | -47.9°C | 3.3% | 68.0hPa | 2.6V | 00:00:00 | 01:28:35 | 00:00:00 | |
| DM0DOS-11 | 2026-09-02 00:20:02 | 56.60516 | 4.51162 | 84° | 22km/h | 18913m | 4.1m/s | -48.1°C | 3.4% | 68.2hPa | 2.6V | 08:30:00 | 01:28:31 | 00:00:00 | |
| BIOWL1-15 | 2026-09-02 00:20:01 | 56.60510 | 4.51094 | 86° | 15km/h | 18867m | 4.1m/s | -47.8°C | 0.2% | 68.7hPa | 2.6V | 18:12:15 | 01:28:21 | 00:00:00 | |
| DL1XH-west | 2026-09-02 00:19:59 | 56.60515 | 4.51143 | 85° | 20km/h | 18904m | 3.9m/s | -48.1°C | 0.3% | 68.3hPa | 2.5V | 18:12:15 | 01:28:29 | 00:00:00 | |
| BIOWL9-15 | 2026-09-02 00:19:55 | 56.60514 | 4.51117 | 72° | 11km/h | 18885m | 4.9m/s | 0°C | -1.0% | -1.0hPa | 2.6V | 00:00:00 | 00:00:00 | 00:00:00 | |
| DM0DOS-11 | 2026-09-02 00:19:52 | 56.60510 | 4.51094 | 86° | 15km/h | 18867m | 4.1m/s | -47.8°C | 3.3% | 68.7hPa | 2.6V | 08:30:00 | 01:28:21 | 00:00:00 | |
| DL1XH-west | 2026-09-02 00:19:49 | 56.60510 | 4.51077 | 94° | 22km/h | 18858m | 5.2m/s | -47.8°C | 0.3% | 68.8hPa | 2.5V | 18:12:15 | 01:28:19 | 00:00:00 | |
| BIOWL1-15 | 2026-09-02 00:19:49 | 56.60512 | 4.51054 | 104° | 27km/h | 18849m | 5m/s | -47.8°C | 0.3% | 68.9hPa | 2.5V | 18:12:15 | 01:28:17 | 00:00:00 | |
| DJ2DS-15 | 2026-09-02 00:19:45 | 56.60516 | 4.51030 | 109° | 26km/h | 18840m | 3.5m/s | -47.7°C | 3.3% | 69.0hPa | 2.6V | 00:00:00 | 01:28:15 | 00:00:00 | |
| DM0DOS-11 | 2026-09-02 00:19:42 | 56.60518 | 4.50982 | 91° | 15km/h | 18817m | 4.3m/s | -47.9°C | 3.3% | 69.2hPa | 2.6V | 08:30:00 | 01:28:10 | 00:00:00 | |
| BIOWL1-15 | 2026-09-02 00:19:41 | 56.60520 | 4.50947 | 101° | 24km/h | 18799m | 3.8m/s | -47.9°C | 0.2% | 69.4hPa | 2.6V | 18:12:15 | 01:28:06 | 00:00:00 | |
| DL1XH-west | 2026-09-02 00:19:38 | 56.60518 | 4.50967 | 92° | 18km/h | 18808m | 5m/s | -47.9°C | 0.2% | 69.3hPa | 2.5V | 18:12:15 | 01:28:08 | 00:00:00 | |
| DM0DOS-11 | 2026-09-02 00:19:32 | 56.60532 | 4.50870 | 105° | 27km/h | 18770m | 4.5m/s | -47.9°C | 3.3% | 69.7hPa | 2.6V | 08:30:00 | 01:28:00 | 00:00:00 | |
| DL1XH-west | 2026-09-02 00:19:27 | 56.60535 | 4.50835 | 94° | 27km/h | 18756m | 4.7m/s | -47.9°C | 0.2% | 69.9hPa | 2.5V | 18:12:15 | 01:27:57 | 00:00:00 | |
| BIOWL1-15 | 2026-09-02 00:19:25 | 56.60547 | 4.50740 | 106° | 42km/h | 18728m | 3.7m/s | -47.9°C | 0.2% | 70.1hPa | 2.5V | 18:12:15 | 01:27:51 | 00:00:00 | |
| DJ2DS-15 | 2026-09-02 00:19:25 | 56.60536 | 4.50808 | 100° | 38km/h | 18748m | 4.9m/s | -47.8°C | 3.2% | 69.9hPa | 2.5V | 00:00:00 | 01:27:55 | 00:00:00 | |
| DM0DOS-11 | 2026-09-02 00:19:22 | 56.60550 | 4.50722 | 105° | 40km/h | 18724m | 3.9m/s | -48°C | 3.3% | 70.2hPa | 2.5V | 08:30:00 | 01:27:50 | 00:00:00 | |
| DL1XH-west | 2026-09-02 00:19:17 | 56.60559 | 4.50672 | 105° | 37km/h | 18710m | 4.3m/s | -48°C | 0.3% | 70.3hPa | 2.5V | 18:12:15 | 01:27:47 | 00:00:00 | |
| DM0DOS-11 | 2026-09-02 00:19:15 | 56.60569 | 4.50551 | 95° | 40km/h | 18678m | 5m/s | -48.1°C | 3.3% | 70.7hPa | 2.5V | 08:30:00 | 01:27:40 | 00:00:00 | |
| BIOWL1-15 | 2026-09-02 00:19:14 | 56.60566 | 4.50587 | 101° | 38km/h | 18688m | 3.9m/s | -48.1°C | 0.2% | 70.6hPa | 2.6V | 18:12:15 | 01:27:42 | 00:00:00 | |
| DL1XH-west | 2026-09-02 00:19:07 | 56.60572 | 4.50482 | 96° | 37km/h | 18659m | 5.4m/s | -48.1°C | 0.3% | 70.9hPa | 2.6V | 18:12:15 | 01:27:36 | 00:00:00 | |
| DM0DOS-11 | 2026-09-02 00:19:05 | 56.60579 | 4.50385 | 92° | 33km/h | 18632m | 5.1m/s | -48.1°C | 3.3% | 71.2hPa | 2.5V | 08:30:00 | 01:27:30 | 00:00:00 | |
| BIOWL1-15 | 2026-09-02 00:19:01 | 56.60578 | 4.50400 | 97° | 33km/h | 18636m | 3.2m/s | 0°C | 0% | 71.2hPa | 2.6V | 18:12:15 | 01:27:31 | 00:00:00 | |
| DL1XH-west | 2026-09-02 00:18:56 | 56.60577 | 4.50318 | 86° | 37km/h | 18613m | 4.2m/s | -48.4°C | 0.3% | 71.4hPa | 2.6V | 18:12:15 | 01:27:26 | 00:00:00 | |
| BIOWL1-15 | 2026-09-02 00:18:55 | 56.60588 | 4.50152 | 96° | 31km/h | 18567m | 4.4m/s | 0°C | 0% | 0hPa | 2.5V | 18:12:15 | 01:27:16 | 00:00:00 | |
| DM0DOS-11 | 2026-09-02 00:18:45 | 56.60588 | 4.50052 | 90° | 38km/h | 18539m | 4.7m/s | -48.8°C | 3.4% | 72.2hPa | 2.6V | 08:30:00 | 01:27:10 | 00:00:00 | |
| DL1XH-west | 2026-09-02 00:18:45 | 56.60588 | 4.50138 | 93° | 33km/h | 18563m | 3.8m/s | -48.9°C | 0.3% | 72hPa | 2.6V | 18:12:15 | 01:27:15 | 00:00:00 | |
| BIOWL1-15 | 2026-09-02 00:18:40 | 56.60588 | 4.50034 | 94° | 40km/h | 18534m | 5m/s | 0°C | 0% | 0hPa | 2.6V | 18:12:15 | 01:27:09 | 00:00:00 | |
| DM0DOS-11 | 2026-09-02 00:18:35 | 56.60592 | 4.49881 | 86° | 35km/h | 18491m | 3.9m/s | -48.6°C | 3.4% | 72.8hPa | 2.5V | 08:30:00 | 01:27:00 | 00:00:00 | |
| DL1XH-west | 2026-09-02 00:18:34 | 56.60592 | 4.49948 | 93° | 37km/h | 18511m | 5.5m/s | -48.7°C | 0.3% | 72.5hPa | 2.6V | 18:12:15 | 01:27:04 | 00:00:00 | |
| DL1XH-west | 2026-09-02 00:18:23 | 56.60589 | 4.49764 | 86° | 38km/h | 18458m | 4.2m/s | -48.9°C | 0.3% | 73.1hPa | 2.6V | 18:12:15 | 01:26:53 | 00:00:00 | |
| DM0DOS-11 | 2026-09-02 00:18:22 | 56.60586 | 4.49711 | 84° | 37km/h | 18444m | 4.2m/s | -49.1°C | 3.4% | 73.2hPa | 2.5V | 08:30:00 | 01:26:50 | 00:00:00 | |
| DM0DOS-11 | 2026-09-02 00:18:15 | 56.60568 | 4.49532 | 72° | 40km/h | 18398m | 4.3m/s | -49.2°C | 3.5% | 73.8hPa | 2.6V | 08:30:00 | 01:26:40 | 00:00:00 | |
| DL1XH-west | 2026-09-02 00:18:13 | 56.60577 | 4.49586 | 75° | 42km/h | 18411m | 3.5m/s | -49.3°C | 0.4% | 73.6hPa | 2.5V | 18:12:15 | 01:26:43 | 00:00:00 | |
| DM0DOS-11 | 2026-09-02 00:18:06 | 56.60531 | 4.49359 | 70° | 33km/h | 18351m | 4m/s | -49.1°C | 3.4% | 74.3hPa | 2.6V | 08:30:00 | 01:26:30 | 00:00:00 | |
| DL1XH-west | 2026-09-02 00:18:02 | 56.60537 | 4.49390 | 72° | 38km/h | 18361m | 3.3m/s | -49.1°C | 0.3% | 74.2hPa | 2.5V | 18:12:15 | 01:26:32 | 00:00:00 | |
| DL1XH-west | 2026-09-02 00:17:51 | 56.60510 | 4.49221 | 72° | 35km/h | 18308m | 5.7m/s | -49.6°C | 0.4% | 74.8hPa | 2.5V | 18:12:15 | 01:26:21 | 00:00:00 | |
| DM0DOS-11 | 2026-09-02 00:17:49 | 56.60487 | 4.49123 | 67° | 31km/h | 18275m | 4.4m/s | -49.8°C | 3.6% | 75.2hPa | 2.5V | 08:30:00 | 01:26:14 | 00:00:00 | |
| DL1XH-west | 2026-09-02 00:17:41 | 56.60477 | 4.49079 | 70° | 35km/h | 18261m | 4.2m/s | -49.8°C | 0.4% | 75.3hPa | 2.6V | 18:12:15 | 01:26:11 | 00:00:00 | |
| DM0DOS-11 | 2026-09-02 00:17:35 | 56.60461 | 4.48978 | 78° | 31km/h | 18228m | 3.9m/s | -50.1°C | 3.6% | 75.8hPa | 2.5V | 08:30:00 | 01:26:04 | 00:00:00 | |
| DL1XH-west | 2026-09-02 00:17:30 | 56.60455 | 4.48915 | 83° | 37km/h | 18209m | 5.1m/s | -50.4°C | 0.5% | 76hPa | 2.5V | 18:12:15 | 01:26:00 | 00:00:00 | |
| DM0DOS-11 | 2026-09-02 00:17:29 | 56.60444 | 4.48801 | 74° | 44km/h | 18180m | 3.9m/s | -50.4°C | 3.7% | 76.3hPa | 2.6V | 08:30:00 | 01:25:54 | 00:00:00 | |
| DL1XH-west | 2026-09-02 00:17:19 | 56.60431 | 4.48696 | 83° | 47km/h | 18156m | 4.3m/s | -50.2°C | 0.5% | 76.5hPa | 2.6V | 18:12:15 | 01:25:49 | 00:00:00 | |
| DL1XH-west | 2026-09-02 00:17:09 | 56.60406 | 4.48499 | 71° | 42km/h | 18107m | 4.9m/s | -50°C | 0.5% | 77.2hPa | 2.5V | 18:12:15 | 01:25:39 | 00:00:00 | |
| DL1XH-west | 2026-09-02 00:16:58 | 56.60383 | 4.48300 | 76° | 37km/h | 18053m | 5.1m/s | -49.6°C | 0.4% | 77.8hPa | 2.5V | 18:12:15 | 01:25:28 | 00:00:00 | |
| DL1XH-west | 2026-09-02 00:16:47 | 56.60353 | 4.48126 | 77° | 33km/h | 17998m | 4.2m/s | -49.3°C | 0.4% | 78.5hPa | 2.5V | 18:12:15 | 01:25:17 | 00:00:00 | |
| DL1XH-west | 2026-09-02 00:16:37 | 56.60331 | 4.47990 | 71° | 31km/h | 17949m | 4.1m/s | -49.2°C | 0.4% | 79hPa | 2.5V | 18:12:15 | 01:25:07 | 00:00:00 | |
| DL1XH-west | 2026-09-02 00:16:26 | 56.60307 | 4.47869 | 70° | 24km/h | 17898m | 4.6m/s | -48.9°C | 0.3% | 79.7hPa | 2.6V | 18:12:15 | 01:24:56 | 00:00:00 | |
| DL1XH-west | 2026-09-02 00:16:16 | 56.60290 | 4.47740 | 76° | 22km/h | 17835m | 4.5m/s | -48.6°C | 0.3% | 80.4hPa | 2.5V | 18:12:15 | 01:24:43 | 00:00:00 | |
| DM0DOS-11 | 2026-09-02 00:16:06 | 56.60284 | 4.47621 | 95° | 29km/h | 17789m | 5.4m/s | -49.1°C | 3.5% | 81hPa | 2.6V | 08:30:00 | 01:24:33 | 00:00:00 | |
| DL1XH-west | 2026-09-02 00:16:03 | 56.60285 | 4.47607 | 97° | 29km/h | 17784m | 5.3m/s | -49.1°C | 0.4% | 81hPa | 2.6V | 18:12:15 | 01:24:32 | 00:00:00 | |
| DM0DOS-11 | 2026-09-02 00:15:55 | 56.60281 | 4.47464 | 86° | 42km/h | 17741m | 3.7m/s | -48.9°C | 3.4% | 81.6hPa | 2.5V | 08:30:00 | 01:24:23 | 00:00:00 | |
| DL1XH-west | 2026-09-02 00:15:53 | 56.60280 | 4.47428 | 86° | 38km/h | 17732m | 4.3m/s | -48.9°C | 0.3% | 81.7hPa | 2.6V | 18:12:15 | 01:24:21 | 00:00:00 | |
| DM0DOS-11 | 2026-09-02 00:15:45 | 56.60274 | 4.47292 | 82° | 40km/h | 17697m | 4.6m/s | -48.9°C | 3.4% | 82.1hPa | 2.6V | 08:30:00 | 01:24:13 | 00:00:00 | |
| DL1XH-west | 2026-09-02 00:15:41 | 56.60270 | 4.47238 | 81° | 38km/h | 17684m | 4.5m/s | -49.1°C | 0.3% | 82.3hPa | 2.5V | 18:12:15 | 01:24:10 | 00:00:00 | |
| DM0DOS-11 | 2026-09-02 00:15:34 | 56.60255 | 4.47125 | 74° | 37km/h | 17652m | 4m/s | -49.5°C | 3.5% | 82.7hPa | 2.6V | 08:30:00 | 01:24:03 | 00:00:00 | |
| DL1XH-west | 2026-09-02 00:15:30 | 56.60247 | 4.47072 | 71° | 44km/h | 17639m | 4.3m/s | -49.4°C | 0.4% | 82.9hPa | 2.5V | 18:12:15 | 01:24:00 | 00:00:00 | |
| DM0DOS-11 | 2026-09-02 00:15:25 | 56.60230 | 4.46939 | 84° | 42km/h | 17607m | 4.2m/s | -49.2°C | 3.4% | 83.3hPa | 2.5V | 08:30:00 | 01:23:53 | 00:00:00 | |
| DL1XH-west | 2026-09-02 00:15:20 | 56.60225 | 4.46841 | 89° | 42km/h | 17585m | 4m/s | -49.3°C | 0.3% | 83.6hPa | 2.5V | 18:12:15 | 01:23:48 | 00:00:00 | |
| DM0DOS-11 | 2026-09-02 00:15:15 | 56.60221 | 4.46748 | 87° | 40km/h | 17562m | 3.8m/s | -49.3°C | 3.4% | 83.8hPa | 2.5V | 08:30:00 | 01:23:43 | 00:00:00 | |
| DL1XH-west | 2026-09-02 00:15:09 | 56.60217 | 4.46674 | 88° | 44km/h | 17545m | 4.3m/s | -49.4°C | 0.2% | 84.1hPa | 2.6V | 18:12:15 | 01:23:39 | 00:00:00 | |
| DL1XH-west | 2026-09-02 00:14:58 | 56.60226 | 4.46467 | 91° | 38km/h | 17497m | 4.6m/s | -49.8°C | 0.4% | 84.7hPa | 2.5V | 18:12:15 | 01:23:28 | 00:00:00 | |
| DL1XH-west | 2026-09-02 00:14:47 | 56.60227 | 4.46278 | 96° | 37km/h | 17450m | 4.2m/s | -50.1°C | 0.4% | 85.3hPa | 2.5V | 18:12:15 | 01:23:17 | 00:00:00 | |
| DM0DOS-11 | 2026-09-02 00:14:45 | 56.60230 | 4.46215 | 93° | 33km/h | 17432m | 4.6m/s | -50.3°C | 3.7% | 85.5hPa | 2.6V | 08:30:00 | 01:23:13 | 00:00:00 | |
| DL1XH-west | 2026-09-02 00:14:37 | 56.60225 | 4.46126 | 79° | 33km/h | 17406m | 4.8m/s | -50.3°C | 0.5% | 85.9hPa | 2.5V | 18:12:15 | 01:23:07 | 00:00:00 | |
| DM0DOS-11 | 2026-09-02 00:14:35 | 56.60221 | 4.46071 | 84° | 31km/h | 17389m | 3.9m/s | -50.3°C | 3.7% | 86.1hPa | 2.6V | 08:30:00 | 01:23:03 | 00:00:00 | |
| DL1XH-west | 2026-09-02 00:14:26 | 56.60221 | 4.45977 | 92° | 29km/h | 17357m | 4.7m/s | -50.1°C | 0.5% | 86.5hPa | 2.6V | 18:12:15 | 01:22:56 | 00:00:00 | |
| DM0DOS-11 | 2026-09-02 00:14:25 | 56.60221 | 4.45935 | 94° | 31km/h | 17344m | 3.8m/s | -50.1°C | 3.6% | 86.7hPa | 2.5V | 08:30:00 | 01:22:53 | 00:00:00 | |
| DM0DOS-11 | 2026-09-02 00:14:17 | 56.60237 | 4.45777 | 91° | 31km/h | 17295m | 4.2m/s | -49.8°C | 3.6% | 87.4hPa | 2.6V | 08:30:00 | 01:22:42 | 00:00:00 | |
| DL1XH-west | 2026-09-02 00:14:16 | 56.60233 | 4.45835 | 101° | 33km/h | 17313m | 4.7m/s | -49.9°C | 0.5% | 87.1hPa | 2.5V | 18:12:15 | 01:22:46 | 00:00:00 | |
| DL1XH-west | 2026-09-02 00:14:06 | 56.60242 | 4.45668 | 103° | 35km/h | 17267m | 3.7m/s | -49.9°C | 0.4% | 87.8hPa | 2.5V | 18:12:15 | 01:22:35 | 00:00:00 | |
| DM0DOS-11 | 2026-09-02 00:14:05 | 56.60249 | 4.45618 | 102° | 38km/h | 17254m | 3.8m/s | -49.8°C | 3.6% | 88hPa | 2.6V | 08:30:00 | 01:22:32 | 00:00:00 | |
| DL1XH-west | 2026-09-02 00:13:55 | 56.60259 | 4.45498 | 98° | 42km/h | 17223m | 3.7m/s | -49.7°C | 0.4% | 88.3hPa | 2.6V | 18:12:15 | 01:22:25 | 00:00:00 | |
| DM0DOS-11 | 2026-09-02 00:13:54 | 56.60264 | 4.45436 | 100° | 47km/h | 17209m | 5.4m/s | -49.7°C | 3.5% | 88.5hPa | 2.5V | 08:30:00 | 01:22:22 | 00:00:00 | |
| DL1XH-west | 2026-09-02 00:13:45 | 56.60279 | 4.45268 | 95° | 44km/h | 17174m | 4.9m/s | -49.6°C | 0.4% | 89hPa | 2.5V | 18:12:15 | 01:22:14 | 00:00:00 | |
| DM0DOS-11 | 2026-09-02 00:13:44 | 56.60280 | 4.45226 | 93° | 46km/h | 17165m | 3.7m/s | -50°C | 3.6% | 89.1hPa | 2.6V | 08:30:00 | 01:22:12 | 00:00:00 | |
| DL1XH-west | 2026-09-02 00:13:35 | 56.60290 | 4.45037 | 95° | 57km/h | 17131m | 4.7m/s | -50.3°C | 0.5% | 89.6hPa | 2.6V | 18:12:15 | 01:22:04 | 00:00:00 | |
| DM0DOS-11 | 2026-09-02 00:13:34 | 56.60292 | 4.44986 | 95° | 55km/h | 17122m | 4.5m/s | -50.2°C | 3.6% | 89.7hPa | 2.5V | 08:30:00 | 01:22:02 | 00:00:00 | |
| DM0DOS-11 | 2026-09-02 00:13:28 | 56.60303 | 4.44749 | 95° | 44km/h | 17081m | 3.1m/s | -49.9°C | 3.7% | 90.2hPa | 2.6V | 08:30:00 | 01:21:52 | 00:00:00 | |
| DL1XH-west | 2026-09-02 00:13:24 | 56.60302 | 4.44769 | 96° | 47km/h | 17085m | 4m/s | -49.9°C | 0.4% | 90.2hPa | 2.5V | 18:12:15 | 01:21:53 | 00:00:00 | |
| DM0DOS-11 | 2026-09-02 00:13:15 | 56.60316 | 4.44559 | 95° | 42km/h | 17038m | 3.5m/s | -49.7°C | 3.6% | 90.9hPa | 2.5V | 08:30:00 | 01:21:42 | 00:00:00 | |
| DL1XH-west | 2026-09-02 00:13:14 | 56.60315 | 4.44579 | 100° | 42km/h | 17042m | 4.7m/s | -49.8°C | 0.5% | 90.8hPa | 2.6V | 18:12:15 | 01:21:43 | 00:00:00 | |
| DM0DOS-11 | 2026-09-02 00:13:05 | 56.60330 | 4.44381 | 95° | 33km/h | 16993m | 4.1m/s | -49.4°C | 3.6% | 91.5hPa | 2.6V | 08:30:00 | 01:21:32 | 00:00:00 | |
| DL1XH-west | 2026-09-02 00:13:03 | 56.60330 | 4.44381 | 96° | 33km/h | 16993m | 4.1m/s | -49.4°C | 0.4% | 91.5hPa | 2.6V | 18:12:15 | 01:21:32 | 00:00:00 | |
| DM0DOS-11 | 2026-09-02 00:12:54 | 56.60342 | 4.44236 | 95° | 33km/h | 16946m | 3.8m/s | -49.2°C | 3.5% | 92.1hPa | 2.5V | 08:30:00 | 01:21:22 | 00:00:00 | |
| DL1XH-west | 2026-09-02 00:12:52 | 56.60342 | 4.44236 | 96° | 33km/h | 16946m | 3.8m/s | -49.2°C | 0.4% | 92.1hPa | 2.5V | 18:12:15 | 01:21:22 | 00:00:00 | |
| DJ2DS-15 | 2026-09-02 00:12:45 | 56.60345 | 4.44154 | 93° | 26km/h | 16914m | 3.8m/s | -48.9°C | 3.5% | 92.5hPa | 2.6V | 00:00:00 | 01:21:15 | 00:00:00 | |
| DM0DOS-11 | 2026-09-02 00:12:44 | 56.60344 | 4.44125 | 87° | 24km/h | 16900m | 4.5m/s | -48.8°C | 3.4% | 92.8hPa | 2.6V | 08:30:00 | 01:21:12 | 00:00:00 | |
| DL1XH-west | 2026-09-02 00:12:42 | 56.60344 | 4.44114 | 94° | 26km/h | 16895m | 4.6m/s | -48.8°C | 0.4% | 92.9hPa | 2.5V | 18:12:15 | 01:21:11 | 00:00:00 | |
| DJ2DS-15 | 2026-09-02 00:12:41 | 56.60344 | 4.44114 | 93° | 26km/h | 16895m | 4.6m/s | -48.8°C | 1.1% | 92.9hPa | 2.5V | 00:00:00 | 00:00:00 | 00:00:00 | |
| DM0DOS-11 | 2026-09-02 00:12:34 | 56.60351 | 4.44003 | 91° | 20km/h | 16855m | 3.7m/s | -48.7°C | 3.4% | 93.4hPa | 2.5V | 08:30:00 | 01:21:02 | 00:00:00 | |
| DL1XH-west | 2026-09-02 00:12:31 | 56.60351 | 4.43994 | 96° | 20km/h | 16850m | 4.9m/s | -48.7°C | 0.4% | 93.5hPa | 2.5V | 18:12:15 | 01:21:01 | 00:00:00 | |
| DJ2DS-15 | 2026-09-02 00:12:25 | 56.60357 | 4.43925 | 104° | 31km/h | 16823m | 5.0m/s | -48.5°C | 3.4% | 93.8hPa | 2.5V | 00:00:00 | 01:20:55 | 08:30:00 | |
| DM0DOS-11 | 2026-09-02 00:12:24 | 56.60364 | 4.43887 | 109° | 27km/h | 16810m | 4.3m/s | -48.5°C | 3.4% | 94.1hPa | 2.6V | 08:30:00 | 01:20:52 | 00:00:00 | |
| DL1XH-west | 2026-09-02 00:12:21 | 56.60368 | 4.43865 | 115° | 24km/h | 16801m | 5.2m/s | -48.5°C | 0.3% | 94.2hPa | 2.5V | 18:12:15 | 01:20:50 | 00:00:00 | |
| DM0DOS-11 | 2026-09-02 00:12:15 | 56.60387 | 4.43760 | 107° | 35km/h | 16766m | 4.8m/s | -48.7°C | 3.4% | 94.7hPa | 2.5V | 08:30:00 | 01:20:42 | 00:00:00 | |
| DL1XH-west | 2026-09-02 00:12:10 | 56.60398 | 4.43718 | 125° | 35km/h | 16752m | 3.9m/s | -48.6°C | 0.4% | 94.9hPa | 2.6V | 18:12:15 | 01:20:39 | 00:00:00 | |
| DM0DOS-11 | 2026-09-02 00:12:05 | 56.60427 | 4.43624 | 117° | 37km/h | 16720m | 3.9m/s | -48.4°C | 3.4% | 95.3hPa | 2.6V | 08:30:00 | 01:20:32 | 00:00:00 | |
| DL1XH-west | 2026-09-02 00:11:59 | 56.60440 | 4.43563 | 112° | 37km/h | 16702m | 4m/s | -48.3°C | 0.3% | 95.6hPa | 2.5V | 18:12:15 | 01:20:28 | 00:00:00 | |
| DM0DOS-11 | 2026-09-02 00:11:56 | 56.60458 | 4.43463 | 106° | 37km/h | 16673m | 4.6m/s | -48°C | 3.3% | 96hPa | 2.5V | 08:30:00 | 01:20:22 | 00:00:00 | |
| DL1XH-west | 2026-09-02 00:11:49 | 56.60468 | 4.43398 | 110° | 37km/h | 16655m | 3.8m/s | -47.9°C | 0.3% | 96.3hPa | 2.6V | 18:12:15 | 01:20:18 | 00:00:00 | |
| DJ2DS-15 | 2026-09-02 00:11:45 | 56.60476 | 4.43351 | 104° | 37km/h | 16641m | 3.6m/s | -47.8°C | 3.3% | 96.5hPa | 2.6V | 00:00:00 | 01:20:15 | 00:00:00 | |
| DM0DOS-11 | 2026-09-02 00:11:44 | 56.60484 | 4.43306 | 109° | 35km/h | 16628m | 3.7m/s | -47.8°C | 3.2% | 96.7hPa | 2.6V | 08:30:00 | 01:20:12 | 00:00:00 | |
| DL1XH-west | 2026-09-02 00:11:38 | 56.60498 | 4.43232 | 111° | 37km/h | 16605m | 4.4m/s | -47.7°C | 0.2% | 97.1hPa | 2.5V | 18:12:15 | 01:20:07 | 00:00:00 | |
| DL1XH-west | 2026-09-02 00:11:28 | 56.60528 | 4.43085 | 104° | 40km/h | 16563m | 4.3m/s | -47.6°C | 0.2% | 97.7hPa | 2.6V | 18:12:15 | 01:19:58 | 00:00:00 | |
| DJ2DS-15 | 2026-09-02 00:11:25 | 56.60535 | 4.43032 | 106° | 47km/h | 16550m | 3.8m/s | -47.6°C | 3.2% | 97.8hPa | 2.5V | 00:00:00 | 01:19:55 | 00:00:00 | |
| DM0DOS-11 | 2026-09-02 00:11:24 | 56.60545 | 4.42977 | 108° | 46km/h | 16536m | 4.2m/s | -47.7°C | 3.1% | 98hPa | 2.6V | 08:30:00 | 01:19:52 | 00:00:00 | |
| DL1XH-west | 2026-09-02 00:11:18 | 56.60561 | 4.42851 | 99° | 49km/h | 16508m | 5.1m/s | -48.4°C | 0.3% | 98.5hPa | 2.5V | 18:12:15 | 01:19:46 | 00:00:00 | |
| DM0DOS-11 | 2026-09-02 00:11:17 | 56.60569 | 4.42769 | 106° | 44km/h | 16491m | 4.4m/s | -48.4°C | 3.3% | 98.7hPa | 2.5V | 08:30:00 | 01:19:42 | 00:00:00 | |
| DL1XH-west | 2026-09-02 00:11:07 | 56.60582 | 4.42665 | 95° | 57km/h | 16470m | 4.8m/s | -48.3°C | 0.3% | 99.1hPa | 2.6V | 18:12:15 | 01:19:37 | 00:00:00 | |
| DJ2DS-15 | 2026-09-02 00:11:05 | 56.60582 | 4.42610 | 88° | 62km/h | 16460m | 5.1m/s | -48.3°C | 3.3% | 99.2hPa | 2.5V | 00:00:00 | 01:19:35 | 00:00:00 | |
| DM0DOS-11 | 2026-09-02 00:11:04 | 56.60579 | 4.42529 | 88° | 58km/h | 16446m | 5.1m/s | -48.8°C | 3.3% | 99.4hPa | 2.5V | 08:30:00 | 01:19:32 | 00:00:00 | |
| DL1XH-west | 2026-09-02 00:10:57 | 56.60580 | 4.42403 | 90° | 55km/h | 16424m | 4.2m/s | -49.1°C | 0.3% | 99.7hPa | 2.5V | 18:12:15 | 01:19:27 | 00:00:00 | |
| DL1XH-west | 2026-09-02 00:10:47 | 56.60552 | 4.42052 | 83° | 62km/h | 16369m | 4m/s | -49.8°C | 0.4% | 100.6hPa | 2.6V | 18:12:15 | 01:19:15 | 00:00:00 | |
| DM0DOS-11 | 2026-09-02 00:10:45 | 56.60549 | 4.41972 | 90° | 55km/h | 16356m | 4.2m/s | -50°C | 3.6% | 100.8hPa | 2.5V | 08:30:00 | 01:19:12 | 00:00:00 | |
| DL1XH-west | 2026-09-02 00:10:36 | 56.60542 | 4.41812 | 77° | 64km/h | 16329m | 4.9m/s | -50.2°C | 0.6% | 101.2hPa | 2.5V | 18:12:15 | 01:19:06 | 00:00:00 | |
| DM0DOS-11 | 2026-09-02 00:10:34 | 56.60528 | 4.41697 | 77° | 60km/h | 16311m | 3.6m/s | -50.3°C | 3.7% | 101.5hPa | 2.6V | 08:30:00 | 01:19:02 | 00:00:00 | |
| DL1XH-west | 2026-09-02 00:10:25 | 56.60506 | 4.41514 | 76° | 60km/h | 16279m | 4.2m/s | -50.3°C | 0.5% | 102hPa | 2.6V | 18:12:15 | 01:18:55 | 00:00:00 | |
| DJ2DS-15 | 2026-09-02 00:10:25 | 56.60506 | 4.41514 | 76° | 53km/h | 16280m | 4.1m/s | -50.2°C | 3.7% | 101.9hPa | 2.6V | 00:00:00 | 01:18:55 | 00:00:00 | |
| DM0DOS-11 | 2026-09-02 00:10:24 | 56.60495 | 4.41436 | 77° | 55km/h | 16266m | 3.5m/s | -50.4°C | 3.8% | 102.2hPa | 2.5V | 08:30:00 | 01:18:52 | 00:00:00 | |
| DL1XH-west | 2026-09-02 00:10:14 | 56.60485 | 4.41249 | 82° | 51km/h | 16231m | 4.8m/s | -50.3°C | 0.6% | 102.8hPa | 2.5V | 18:12:15 | 01:18:44 | 00:00:00 | |
| DM0DOS-11 | 2026-09-02 00:10:14 | 56.60480 | 4.41204 | 77° | 51km/h | 16221m | 3.8m/s | -50.4°C | 3.8% | 102.9hPa | 2.6V | 08:30:00 | 01:18:42 | 00:00:00 | |
| DJ2DS-15 | 2026-09-02 00:10:05 | 56.60469 | 4.41049 | 91° | 44km/h | 16188m | 4.2m/s | -50.5°C | 3.9% | 103.4hPa | 2.5V | 00:00:00 | 01:18:35 | 00:00:00 | |
| DM0DOS-11 | 2026-09-02 00:10:04 | 56.60468 | 4.40989 | 87° | 46km/h | 16174m | 4.8m/s | -50.5°C | 3.9% | 103.6hPa | 2.5V | 08:30:00 | 01:18:32 | 00:00:00 | |
| DL1XH-west | 2026-09-02 00:10:03 | 56.60469 | 4.41009 | 88° | 42km/h | 16178m | 4.2m/s | -50.5°C | 0.7% | 103.6hPa | 2.6V | 18:12:15 | 01:18:33 | 00:00:00 | |
| DL1XH-west | 2026-09-02 00:09:52 | 56.60457 | 4.40781 | 91° | 38km/h | 16128m | 4.2m/s | -50.1°C | 0.5% | 104.4hPa | 2.5V | 18:12:15 | 01:18:22 | 00:00:00 | |
| DL1XH-west | 2026-09-02 00:09:41 | 56.60452 | 4.40576 | 88° | 40km/h | 16080m | 5.6m/s | -49.9°C | 0.6% | 105.1hPa | 2.5V | 18:12:15 | 01:18:11 | 00:00:00 | |
| DL1XH-west | 2026-09-02 00:09:31 | 56.60455 | 4.40311 | 97° | 40km/h | 16017m | 4.4m/s | -50.4°C | 0.7% | 106.2hPa | 2.6V | 18:12:15 | 01:17:58 | 00:00:00 | |
| DL1XH-west | 2026-09-02 00:09:20 | 56.60468 | 4.40145 | 90° | 37km/h | 15975m | 5.1m/s | -50.1°C | 0.7% | 106.9hPa | 2.5V | 18:12:15 | 01:17:49 | 00:00:00 | |
| DL1XH-west | 2026-09-02 00:09:09 | 56.60463 | 4.39966 | 79° | 38km/h | 15922m | 6m/s | -50.1°C | 0.6% | 107.7hPa | 2.6V | 18:12:15 | 01:17:39 | 00:00:00 | |
| DL1XH-west | 2026-09-02 00:08:59 | 56.60453 | 4.39800 | 75° | 37km/h | 15874m | 4.3m/s | -50.1°C | 0.7% | 108.5hPa | 2.5V | 18:12:15 | 01:17:29 | 00:00:00 | |
| DL1XH-west | 2026-09-02 00:08:48 | 56.60412 | 4.39608 | 69° | 38km/h | 15818m | 5.4m/s | -50.1°C | 0.7% | 109.4hPa | 2.6V | 18:12:15 | 01:17:17 | 00:00:00 | |
| DL1XH-west | 2026-09-02 00:08:37 | 56.60382 | 4.39451 | 83° | 27km/h | 15766m | 5.1m/s | -49.8°C | 0.7% | 110.3hPa | 2.5V | 18:12:15 | 01:17:06 | 00:00:00 | |
| DL1XH-west | 2026-09-02 00:08:27 | 56.60375 | 4.39311 | 96° | 29km/h | 15723m | 4.8m/s | -49.5°C | 0.6% | 111hPa | 2.6V | 18:12:15 | 01:16:57 | 00:00:00 | |
| DL1XH-west | 2026-09-02 00:08:17 | 56.60377 | 4.39138 | 94° | 38km/h | 15673m | 5m/s | -49.5°C | 0.6% | 111.9hPa | 2.5V | 18:12:15 | 01:16:46 | 00:00:00 | |
| DL1XH-west | 2026-09-02 00:08:06 | 56.60390 | 4.38973 | 100° | 42km/h | 15624m | 5m/s | -49.3°C | 0.6% | 112.7hPa | 2.6V | 18:12:15 | 01:16:36 | 00:00:00 | |
| DL1XH-west | 2026-09-02 00:07:56 | 56.60411 | 4.38783 | 98° | 40km/h | 15577m | 4.2m/s | -49.5°C | 0.7% | 113.5hPa | 2.6V | 18:12:15 | 01:16:26 | 00:00:00 | |
| DL1XH-west | 2026-09-02 00:07:45 | 56.60441 | 4.38550 | 103° | 47km/h | 15528m | 4.8m/s | -49.4°C | 0.6% | 114.4hPa | 2.5V | 18:12:15 | 01:16:15 | 00:00:00 | |
| DL1XH-west | 2026-09-02 00:07:35 | 56.60465 | 4.38332 | 97° | 53km/h | 15481m | 4m/s | -49.4°C | 0.5% | 115.2hPa | 2.6V | 18:12:15 | 01:16:05 | 00:00:00 | |
| DL1XH-west | 2026-09-02 00:07:25 | 56.60486 | 4.38085 | 101° | 47km/h | 15432m | 5.6m/s | -49.7°C | 0.6% | 116.1hPa | 2.6V | 18:12:15 | 01:15:54 | 00:00:00 | |
| DL1XH-west | 2026-09-02 00:07:14 | 56.60508 | 4.37812 | 97° | 49km/h | 15377m | 5.1m/s | -49.3°C | 0.6% | 117hPa | 2.6V | 18:12:15 | 01:15:42 | 00:00:00 | |
| DL1XH-west | 2026-09-02 00:07:03 | 56.60527 | 4.37606 | 103° | 46km/h | 15332m | 5.1m/s | -48.8°C | 0.5% | 117.9hPa | 2.5V | 18:12:15 | 01:15:32 | 00:00:00 | |
| DL1XH-west | 2026-09-02 00:06:52 | 56.60545 | 4.37384 | 99° | 42km/h | 15280m | 4m/s | -48.5°C | 0.4% | 118.8hPa | 2.5V | 18:12:15 | 01:15:21 | 00:00:00 | |
| DL1XH-west | 2026-09-02 00:06:43 | 56.60568 | 4.37194 | 99° | 42km/h | 15232m | 4.5m/s | -48.1°C | 0.5% | 119.7hPa | 2.6V | 18:12:15 | 01:15:11 | 00:00:00 | |
| DL1XH-west | 2026-09-02 00:06:30 | 56.60587 | 4.37002 | 107° | 37km/h | 15182m | 4.9m/s | -47.7°C | 0.4% | 120.6hPa | 2.6V | 18:12:15 | 01:15:00 | 00:00:00 | |
| DL1XH-west | 2026-09-02 00:06:20 | 56.60609 | 4.36807 | 102° | 38km/h | 15134m | 3.9m/s | -47.6°C | 0.3% | 121.5hPa | 2.6V | 18:12:15 | 01:14:49 | 00:00:00 | |
| DL1XH-west | 2026-09-02 00:06:08 | 56.60626 | 4.36619 | 97° | 44km/h | 15084m | 4.5m/s | -47.6°C | 0.3% | 122.4hPa | 2.5V | 18:12:15 | 01:14:38 | 00:00:00 | |
| DJ2DS-15 | 2026-09-02 00:06:05 | 56.60630 | 4.36560 | 97° | 47km/h | 15072m | 4.0m/s | -47.6°C | 3.3% | 122.6hPa | 2.5V | 00:00:00 | 01:14:35 | 00:00:00 | |
| DL1XH-west | 2026-09-02 00:05:58 | 56.60611 | 4.36093 | 81° | 53km/h | 14978m | 4.4m/s | -47.6°C | 0.3% | 124.4hPa | 2.5V | 18:12:15 | 01:14:14 | 00:00:00 | |
| DM0DOS-11 | 2026-09-02 00:05:48 | 56.60608 | 4.36046 | 82° | 53km/h | 14969m | 3.9m/s | -47.5°C | 3.4% | 124.5hPa | 2.6V | 08:30:00 | 01:14:12 | 00:00:00 | |
| DL1XH-west | 2026-09-02 00:05:42 | 56.60606 | 4.36022 | 82° | 53km/h | 14964m | 4.2m/s | -47.5°C | 0.3% | 124.6hPa | 2.6V | 18:12:15 | 01:14:11 | 00:00:00 | |
| DM0DOS-11 | 2026-09-02 00:05:35 | 56.60593 | 4.35825 | 79° | 47km/h | 14925m | 4.1m/s | -47.4°C | 3.3% | 125.4hPa | 2.5V | 08:30:00 | 01:14:02 | 00:00:00 | |
| DL1XH-west | 2026-09-02 00:05:31 | 56.60589 | 4.35784 | 79° | 44km/h | 14915m | 3.8m/s | -47.4°C | 0.3% | 125.5hPa | 2.5V | 18:12:15 | 01:14:00 | 00:00:00 | |
| DJ2DS-15 | 2026-09-02 00:05:28 | 56.60584 | 4.35744 | 76° | 46km/h | 14907m | 4.5m/s | -47.4°C | 1.2% | 125.8hPa | 2.6V | 00:00:00 | 00:00:00 | 00:00:00 | |
| DM0DOS-11 | 2026-09-02 00:05:25 | 56.60574 | 4.35621 | 85° | 46km/h | 14881m | 4.5m/s | -47.3°C | 3.3% | 126.2hPa | 2.6V | 08:30:00 | 01:13:52 | 00:00:00 | |
| DL1XH-west | 2026-09-02 00:05:20 | 56.60572 | 4.35581 | 86° | 44km/h | 14871m | 4.4m/s | -47.3°C | 0.3% | 126.4hPa | 2.5V | 18:12:15 | 01:13:50 | 00:00:00 | |
| DM0DOS-11 | 2026-09-02 00:05:15 | 56.60557 | 4.35432 | 73° | 40km/h | 14837m | 4.9m/s | -47.1°C | 3.2% | 127.1hPa | 2.5V | 08:30:00 | 01:13:42 | 00:00:00 | |
| DL1XH-west | 2026-09-02 00:05:09 | 56.60551 | 4.35379 | 84° | 42km/h | 14823m | 4.3m/s | -47.1°C | 0.3% | 127.4hPa | 2.6V | 18:12:15 | 01:13:39 | 00:00:00 | |
| DJ2DS-15 | 2026-09-02 00:05:06 | 56.60550 | 4.35306 | 90° | 38km/h | 14807m | 4.9m/s | -47.1°C | 3.2% | 127.6hPa | 2.6V | 00:00:00 | 01:13:35 | 00:00:00 | |
| DM0DOS-11 | 2026-09-02 00:05:04 | 56.60548 | 4.35253 | 83° | 37km/h | 14792m | 4.6m/s | -47.2°C | 3.2% | 128hPa | 2.6V | 08:30:00 | 01:13:32 | 00:00:00 | |
| DL1XH-west | 2026-09-02 00:04:59 | 56.60544 | 4.35170 | 90° | 35km/h | 14769m | 4.1m/s | -47.3°C | 0.3% | 128.4hPa | 2.6V | 18:12:15 | 01:13:27 | 00:00:00 | |
| DM0DOS-11 | 2026-09-02 00:04:58 | 56.60545 | 4.35085 | 91° | 38km/h | 14746m | 5m/s | -47.4°C | 3.3% | 128.9hPa | 2.5V | 08:30:00 | 01:13:22 | 00:00:00 | |
| DL1XH-west | 2026-09-02 00:04:48 | 56.60548 | 4.35014 | 100° | 38km/h | 14728m | 3.9m/s | -47.8°C | 0.4% | 129.2hPa | 2.6V | 18:12:15 | 01:13:18 | 00:00:00 | |
| DM0DOS-11 | 2026-09-02 00:04:45 | 56.60564 | 4.34905 | 107° | 47km/h | 14700m | 4.3m/s | -47.6°C | 0% | 129.8hPa | 2.6V | 08:30:00 | 01:13:12 | 00:00:00 | |
| DL1XH-west | 2026-09-02 00:04:38 | 56.60577 | 4.34817 | 103° | 51km/h | 14681m | 5.3m/s | -47.6°C | 0.3% | 130.1hPa | 2.5V | 18:12:15 | 01:13:08 | 00:00:00 | |
| DM0DOS-11 | 2026-09-02 00:04:38 | 56.60598 | 4.34656 | 102° | 47km/h | 14648m | 3.8m/s | -47.5°C | 0% | 130.8hPa | 2.6V | 08:30:00 | 01:13:01 | 00:00:00 | |
| DL1XH-west | 2026-09-02 00:04:27 | 56.60609 | 4.34569 | 99° | 49km/h | 14630m | 4.9m/s | -47.6°C | 0.3% | 131.2hPa | 2.6V | 18:12:15 | 01:12:57 | 00:00:00 | |
| DM0DOS-11 | 2026-09-02 00:04:26 | 56.60620 | 4.34456 | 99° | 49km/h | 14608m | 5m/s | -47.4°C | 0% | 131.6hPa | 2.6V | 08:30:00 | 01:12:52 | 00:00:00 | |
| DL1XH-west | 2026-09-02 00:04:17 | 56.60639 | 4.34244 | 93° | 46km/h | 14562m | 4m/s | -47.6°C | 0.3% | 132.5hPa | 2.5V | 18:12:15 | 01:12:42 | 00:00:00 | |
| DM0DOS-11 | 2026-09-02 00:04:16 | 56.60639 | 4.34244 | 92° | 46km/h | 14562m | 4m/s | -47.6°C | 0% | 132.5hPa | 2.5V | 08:30:00 | 01:12:42 | 00:00:00 | |
| DM0DOS-11 | 2026-09-02 00:04:07 | 56.60647 | 4.33978 | 94° | 49km/h | 14508m | 4.5m/s | -47.9°C | 0% | 133.6hPa | 2.5V | 08:30:00 | 01:12:30 | 00:00:00 | |
| DL1XH-west | 2026-09-02 00:04:04 | 56.60648 | 4.33956 | 93° | 49km/h | 14503m | 5.2m/s | -48°C | 0.4% | 133.7hPa | 2.5V | 18:12:15 | 01:12:29 | 00:00:00 | |
| DM0DOS-11 | 2026-09-02 00:03:55 | 56.60647 | 4.33655 | 89° | 58km/h | 14445m | 5.1m/s | 0°C | 0% | 0hPa | 2.5V | 08:30:00 | 01:12:17 | 00:00:00 | |
| DL1XH-west | 2026-09-02 00:03:54 | 56.60646 | 4.33735 | 89° | 57km/h | 14459m | 4m/s | -48.1°C | 0.4% | 134.6hPa | 2.6V | 18:12:15 | 01:12:20 | 00:00:00 | |
| DL1XH-west | 2026-09-02 00:03:44 | 56.60641 | 4.33404 | 84° | 60km/h | 14406m | 4.6m/s | -48.4°C | 0.4% | 135.7hPa | 2.6V | 18:12:15 | 01:12:08 | 00:00:00 | |
| DM0DOS-11 | 2026-09-02 00:03:42 | 56.60641 | 4.33404 | 83° | 60km/h | 14405m | 4.6m/s | 0°C | 0% | 0hPa | 2.6V | 00:00:00 | 01:12:08 | 00:00:00 | |
| DM0DOS-11 | 2026-09-02 00:03:34 | 56.60611 | 4.33069 | 79° | 71km/h | 14356m | 3.9m/s | 0°C | 0% | 0hPa | 2.5V | 00:00:00 | 01:11:57 | 00:00:00 | |
| DL1XH-west | 2026-09-02 00:03:32 | 56.60625 | 4.33232 | 80° | 71km/h | 14378m | 4.1m/s | -48.6°C | 0.5% | 136.2hPa | 2.6V | 18:12:15 | 01:12:02 | 00:00:00 | |
| DJ2DS-15 | 2026-09-02 00:03:29 | 56.60604 | 4.33007 | 80° | 64km/h | 14347m | 4.1m/s | -48.5°C | 3.5% | 136.9hPa | 2.6V | 00:00:00 | 01:11:55 | 08:30:00 | |
| DM0DOS-11 | 2026-09-02 00:03:22 | 56.60580 | 4.32769 | 80° | 64km/h | 14312m | 5m/s | 0°C | 0% | 0hPa | 2.5V | 00:00:00 | 01:11:47 | 00:00:00 | |
| DL1XH-west | 2026-09-02 00:03:21 | 56.60592 | 4.32888 | 80° | 66km/h | 14329m | 3.8m/s | -48.4°C | 0.5% | 137.3hPa | 2.5V | 18:12:15 | 01:11:51 | 00:00:00 | |
| DL1XH-west | 2026-09-02 00:03:11 | 56.60570 | 4.32593 | 87° | 64km/h | 14284m | 4.6m/s | -48.1°C | 0.4% | 138.2hPa | 2.5V | 18:12:15 | 01:11:41 | 00:00:00 | |
| DL1XH-west | 2026-09-02 00:03:00 | 56.60561 | 4.32280 | 88° | 62km/h | 14235m | 5.2m/s | -47.8°C | 0.3% | 139.3hPa | 2.6V | 18:12:15 | 01:11:30 | 00:00:00 | |
| DJ2DS-15 | 2026-09-02 00:02:56 | 56.60566 | 4.31858 | 96° | 62km/h | 14169m | 4.7m/s | -48.0°C | 3.4% | 140.6hPa | 2.5V | 00:00:00 | 01:11:15 | 00:00:00 | |
| DL1XH-west | 2026-09-02 00:02:50 | 56.60563 | 4.31995 | 91° | 60km/h | 14190m | 2.8m/s | -48.1°C | 0.5% | 140.2hPa | 2.5V | 18:12:15 | 01:11:20 | 00:00:00 | |
| DL1XH-west | 2026-09-02 00:02:40 | 56.60578 | 4.31719 | 97° | 60km/h | 14149m | 4.3m/s | -48.1°C | 0.5% | 141.1hPa | 2.6V | 18:12:15 | 01:11:10 | 00:00:00 | |
| DJ2DS-15 | 2026-09-02 00:02:35 | 56.60606 | 4.31300 | 94° | 60km/h | 14083m | 3.4m/s | -48.5°C | 3.5% | 142.5hPa | 2.5V | 00:00:00 | 01:10:55 | 00:00:00 | |
| DL1XH-west | 2026-09-02 00:02:30 | 56.60598 | 4.31440 | 98° | 62km/h | 14105m | 4.1m/s | -48.3°C | 0.4% | 142hPa | 2.5V | 18:12:15 | 01:11:00 | 00:00:00 | |
| DL1XH-west | 2026-09-02 00:02:19 | 56.60606 | 4.31129 | 89° | 60km/h | 14059m | 3.7m/s | -48.7°C | 0.6% | 143hPa | 2.5V | 18:12:15 | 01:10:49 | 00:00:00 | |
| DJ2DS-15 | 2026-09-02 00:02:14 | 56.60601 | 4.30741 | 88° | 58km/h | 13999m | 4.8m/s | -48.9°C | 3.6% | 144.3hPa | 2.5V | 00:00:00 | 01:10:35 | 00:00:00 | |
| DL1XH-west | 2026-09-02 00:02:08 | 56.60601 | 4.30741 | 88° | 57km/h | 13999m | 4.9m/s | -49°C | 0.6% | 144.3hPa | 2.5V | 18:12:15 | 01:10:35 | 00:00:00 | |
| DL1XH-west | 2026-09-02 00:01:58 | 56.60599 | 4.30549 | 88° | 58km/h | 13970m | 4.9m/s | -49.1°C | 0.6% | 144.9hPa | 2.5V | 18:12:15 | 01:10:28 | 00:00:00 | |
| DJ2DS-15 | 2026-09-02 00:01:54 | 56.60592 | 4.30212 | 93° | 55km/h | 13916m | 3.0m/s | -48.9°C | 3.7% | 146.1hPa | 2.5V | 00:00:00 | 01:10:15 | 00:00:00 | |
| DL1XH-west | 2026-09-02 00:01:48 | 56.60591 | 4.30291 | 91° | 57km/h | 13928m | 3.9m/s | -49°C | 0.7% | 145.9hPa | 2.5V | 18:12:15 | 01:10:18 | 00:00:00 | |
| DL1XH-west | 2026-09-02 00:01:38 | 56.60596 | 4.30017 | 93° | 55km/h | 13883m | 4.6m/s | -49°C | 0.7% | 146.9hPa | 2.6V | 18:12:15 | 01:10:07 | 00:00:00 | |
| DJ2DS-15 | 2026-09-02 00:01:31 | 56.60599 | 4.29717 | 92° | 53km/h | 13834m | 4.9m/s | -48.7°C | 3.7% | 147.9hPa | 2.6V | 00:00:00 | 01:09:55 | 00:00:00 | |
| DL1XH-west | 2026-09-02 00:01:27 | 56.60599 | 4.29766 | 91° | 55km/h | 13842m | 4.1m/s | -48.8°C | 0.8% | 147.8hPa | 2.6V | 18:12:15 | 01:09:57 | 00:00:00 | |
| DJ2DS-15 | 2026-09-02 00:01:19 | 56.60593 | 4.29485 | 87° | 51km/h | 13793m | 4.4m/s | -48.8°C | 1.5% | 148.9hPa | 2.5V | 00:00:00 | 00:00:00 | 00:00:00 | |
| DL1XH-west | 2026-09-02 00:01:17 | 56.60595 | 4.29531 | 85° | 49km/h | 13801m | 4m/s | -48.8°C | 0.8% | 148.7hPa | 2.5V | 18:12:15 | 01:09:47 | 00:00:00 | |
| DJ2DS-15 | 2026-09-02 00:01:06 | 56.60599 | 4.29239 | 92° | 51km/h | 13752m | 3.8m/s | -48.7°C | 3.7% | 149.8hPa | 2.6V | 00:00:00 | 01:09:35 | 00:00:00 | |
| DL1XH-west | 2026-09-02 00:01:06 | 56.60599 | 4.29263 | 91° | 51km/h | 13756m | 4.2m/s | -48.8°C | 0.8% | 149.7hPa | 2.6V | 18:12:15 | 01:09:36 | 00:00:00 | |
| DL1XH-west | 2026-09-02 00:00:55 | 56.60609 | 4.28974 | 97° | 51km/h | 13708m | 4.5m/s | -48.8°C | 0.8% | 150.9hPa | 2.6V | 18:12:15 | 01:09:24 | 00:00:00 | |
| DJ2DS-15 | 2026-09-02 00:00:48 | 56.60619 | 4.28772 | 96° | 51km/h | 13672m | 4.5m/s | -48.7°C | 3.8% | 151.6hPa | 2.6V | 00:00:00 | 01:09:15 | 00:00:00 | |
| DL1XH-west | 2026-09-02 00:00:44 | 56.60624 | 4.28682 | 96° | 49km/h | 13655m | 4.8m/s | -48.8°C | 0.9% | 152.1hPa | 2.6V | 18:12:15 | 01:09:11 | 00:00:00 | |
| DJ2DS-15 | 2026-09-02 00:00:43 | 56.60626 | 4.28636 | 92° | 51km/h | 13646m | 4.5m/s | -48.8°C | 1.5% | 152.3hPa | 2.6V | 00:00:00 | 00:00:00 | 00:00:00 | |
| DL1XH-west | 2026-09-02 00:00:32 | 56.60631 | 4.28421 | 92° | 51km/h | 13608m | 4.7m/s | -48.8°C | 0.9% | 153.2hPa | 2.6V | 18:12:15 | 01:09:00 | 00:00:00 | |
| DJ2DS-15 | 2026-09-02 00:00:28 | 56.60631 | 4.28299 | 89° | 51km/h | 13587m | 3.4m/s | -49.1°C | 3.8% | 153.7hPa | 2.5V | 00:00:00 | 01:08:55 | 08:30:00 | |
| DL1XH-west | 2026-09-02 00:00:21 | 56.60631 | 4.28201 | 89° | 53km/h | 13570m | 3.3m/s | -49.1°C | 0.9% | 154.1hPa | 2.5V | 18:12:15 | 01:08:51 | 00:00:00 | |
| DL1XH-west | 2026-09-02 00:00:11 | 56.60629 | 4.27852 | 91° | 49km/h | 13508m | 4.7m/s | -48.9°C | 0.9% | 155.5hPa | 2.6V | 18:12:15 | 01:08:36 | 00:00:00 | |
| DJ2DS-15 | 2026-09-02 00:00:06 | 56.60629 | 4.27829 | 91° | 51km/h | 13503m | 3.7m/s | -48.9°C | 3.8% | 155.6hPa | 2.5V | 00:00:00 | 01:08:35 | 00:00:00 | |
| DL1XH-west | 2026-09-01 23:59:56 | 56.60633 | 4.27611 | 95° | 49km/h | 13465m | 4.3m/s | -49.1°C | 0.9% | 156.5hPa | 2.5V | 18:12:15 | 01:08:26 | 00:00:00 | |
| DL1XH-west | 2026-09-01 23:59:45 | 56.60637 | 4.27360 | 91° | 55km/h | 13418m | 3.9m/s | -49.1°C | 0.9% | 157.7hPa | 2.5V | 18:12:15 | 01:08:15 | 00:00:00 | |
| DJ2DS-15 | 2026-09-01 23:59:43 | 56.60639 | 4.27311 | 96° | 51km/h | 13409m | 3.4m/s | -49.0°C | 3.8% | 157.8hPa | 2.6V | 00:00:00 | 01:08:13 | 00:00:00 | |
| DL1XH-west | 2026-09-01 23:59:35 | 56.60650 | 4.27134 | 93° | 49km/h | 13376m | 4.4m/s | -48.9°C | 0.8% | 158.7hPa | 2.6V | 18:12:15 | 01:08:05 | 00:00:00 | |
| DJ2DS-15 | 2026-09-01 23:59:28 | 56.60660 | 4.26949 | 99° | 53km/h | 13341m | 4.1m/s | -48.9°C | 1.5% | 159.5hPa | 2.6V | 00:00:00 | 00:00:00 | 00:00:00 | |
| DL1XH-west | 2026-09-01 23:59:25 | 56.60667 | 4.26873 | 99° | 57km/h | 13329m | 4.4m/s | -48.8°C | 0.7% | 159.8hPa | 2.6V | 18:12:15 | 01:07:54 | 00:00:00 | |
| DJ2DS-15 | 2026-09-01 23:59:23 | 56.60669 | 4.26847 | 98° | 53km/h | 13325m | 4.1m/s | -48.8°C | 3.7% | 159.9hPa | 2.6V | 00:00:00 | 01:07:53 | 00:00:00 | |
| DL1XH-west | 2026-09-01 23:59:14 | 56.60682 | 4.26597 | 94° | 53km/h | 13281m | 4.2m/s | -48.7°C | 0.7% | 161hPa | 2.5V | 18:12:15 | 01:07:43 | 00:00:00 | |
| DJ2DS-15 | 2026-09-01 23:59:03 | 56.60687 | 4.26358 | 93° | 47km/h | 13239m | 3.4m/s | -48.6°C | 3.7% | 162.0hPa | 2.5V | 00:00:00 | 01:07:33 | 00:00:00 | |
| DL1XH-west | 2026-09-01 23:59:02 | 56.60688 | 4.26313 | 94° | 47km/h | 13230m | 3.8m/s | -48.6°C | 0.8% | 162.3hPa | 2.5V | 18:12:15 | 01:07:31 | 00:00:00 | |
| DL1XH-west | 2026-09-01 23:58:52 | 56.60691 | 4.26110 | 93° | 46km/h | 13187m | 5m/s | -48.4°C | 0.7% | 163.3hPa | 2.5V | 18:12:15 | 01:07:21 | 00:00:00 | |
| DL1XH-west | 2026-09-01 23:58:41 | 56.60703 | 4.25856 | 92° | 51km/h | 13139m | 3.9m/s | -48.3°C | 0.7% | 164.6hPa | 2.6V | 18:12:15 | 01:07:10 | 00:00:00 | |
| DL1XH-west | 2026-09-01 23:58:31 | 56.60708 | 4.25646 | 93° | 57km/h | 13098m | 3.8m/s | -48.3°C | 0.7% | 165.5hPa | 2.7V | 18:12:15 | 01:07:01 | 00:00:00 | |
| DL1XH-west | 2026-09-01 23:58:20 | 56.60718 | 4.25353 | 97° | 60km/h | 13049m | 3.8m/s | -48.6°C | 0.8% | 166.8hPa | 2.5V | 18:12:15 | 01:06:50 | 00:00:00 | |
| DL1XH-west | 2026-09-01 23:58:09 | 56.60728 | 4.25054 | 99° | 62km/h | 12998m | 5.4m/s | -48.7°C | 0.9% | 168.1hPa | 2.5V | 18:12:15 | 01:06:39 | 00:00:00 | |
| DL1XH-west | 2026-09-01 23:57:58 | 56.60753 | 4.24731 | 96° | 69km/h | 12948m | 4.9m/s | -48.5°C | 0.9% | 169.4hPa | 2.5V | 18:12:15 | 01:06:28 | 00:00:00 | |
| DL1XH-west | 2026-09-01 23:57:48 | 56.60775 | 4.24415 | 96° | 69km/h | 12903m | 3.7m/s | -48.5°C | 0.9% | 170.5hPa | 2.7V | 18:12:15 | 01:06:18 | 00:00:00 | |
| DL1XH-west | 2026-09-01 23:57:38 | 56.60791 | 4.24102 | 96° | 71km/h | 12859m | 3.6m/s | -48.5°C | 1% | 171.7hPa | 2.5V | 18:12:15 | 01:06:08 | 00:00:00 | |
| DL1XH-west | 2026-09-01 23:57:28 | 56.60808 | 4.23777 | 98° | 69km/h | 12815m | 3.2m/s | -48.3°C | 1% | 172.8hPa | 2.7V | 18:12:15 | 01:05:58 | 00:00:00 | |
| DL1XH-west | 2026-09-01 23:57:17 | 56.60825 | 4.23419 | 93° | 69km/h | 12768m | 4m/s | -48.3°C | 1% | 174.1hPa | 2.7V | 18:12:15 | 01:05:47 | 00:00:00 | |
| DL1XH-west | 2026-09-01 23:57:07 | 56.60834 | 4.23055 | 92° | 71km/h | 12721m | 4.2m/s | -48.2°C | 1% | 175.4hPa | 2.7V | 18:12:15 | 01:05:36 | 00:00:00 | |
| DL1XH-west | 2026-09-01 23:56:56 | 56.60836 | 4.22690 | 91° | 71km/h | 12674m | 3.8m/s | -48.4°C | 1% | 176.6hPa | 2.5V | 18:12:15 | 01:05:25 | 00:00:00 | |
| DL1XH-west | 2026-09-01 23:56:46 | 56.60834 | 4.22361 | 87° | 69km/h | 12632m | 3.7m/s | -48.5°C | 1% | 177.7hPa | 2.5V | 18:12:15 | 01:05:15 | 00:00:00 | |
| DL1XH-west | 2026-09-01 23:56:35 | 56.60827 | 4.22010 | 87° | 69km/h | 12585m | 3.1m/s | -48.7°C | 1.1% | 179hPa | 2.7V | 18:12:15 | 01:05:04 | 00:00:00 | |
| DL1XH-west | 2026-09-01 23:56:25 | 56.60813 | 4.21673 | 83° | 66km/h | 12542m | 3.6m/s | -48.5°C | 1.1% | 180.2hPa | 2.7V | 18:12:15 | 01:04:53 | 00:00:00 | |
| DL1XH-west | 2026-09-01 23:56:13 | 56.60790 | 4.21349 | 85° | 64km/h | 12495m | 4.7m/s | -48.7°C | 1.2% | 181.5hPa | 2.7V | 18:12:15 | 01:04:42 | 00:00:00 | |
| DL1XH-west | 2026-09-01 23:56:01 | 56.60773 | 4.21027 | 85° | 62km/h | 12450m | 4.4m/s | -48.5°C | 1.2% | 182.7hPa | 2.6V | 18:12:15 | 01:04:31 | 00:00:00 | |
| DL1XH-west | 2026-09-01 23:55:51 | 56.60754 | 4.20713 | 86° | 64km/h | 12407m | 4.1m/s | -48.4°C | 1.3% | 183.9hPa | 2.6V | 18:12:15 | 01:04:20 | 00:00:00 | |
| DL1XH-west | 2026-09-01 23:55:39 | 56.60745 | 4.20398 | 88° | 64km/h | 12365m | 3.4m/s | -48.5°C | 1.3% | 185.1hPa | 2.5V | 18:12:15 | 01:04:09 | 00:00:00 | |
| DL1XH-west | 2026-09-01 23:55:29 | 56.60732 | 4.20068 | 85° | 66km/h | 12322m | 4.7m/s | -48.5°C | 1.4% | 186.3hPa | 2.5V | 18:12:15 | 01:03:58 | 00:00:00 | |
| DL1XH-west | 2026-09-01 23:55:18 | 56.60726 | 4.19755 | 87° | 66km/h | 12279m | 4.4m/s | -48.4°C | 1.4% | 187.6hPa | 2.7V | 18:12:15 | 01:03:47 | 00:00:00 | |
| DL1XH-west | 2026-09-01 23:55:08 | 56.60716 | 4.19437 | 88° | 62km/h | 12234m | 3m/s | -48.2°C | 1.2% | 188.8hPa | 2.7V | 18:12:15 | 01:03:36 | 00:00:00 | |
| DL1XH-west | 2026-09-01 23:54:57 | 56.60714 | 4.19151 | 88° | 62km/h | 12195m | 4.5m/s | -48.1°C | 1.3% | 190hPa | 2.6V | 18:12:15 | 01:03:26 | 00:00:00 | |
| DL1XH-west | 2026-09-01 23:54:46 | 56.60710 | 4.18809 | 91° | 68km/h | 12154m | 4.2m/s | -48.3°C | 1.4% | 191.1hPa | 2.5V | 18:12:15 | 01:03:15 | 00:00:00 | |
| DL1XH-west | 2026-09-01 23:54:35 | 56.60695 | 4.18509 | 82° | 66km/h | 12115m | 3.6m/s | -48.3°C | 1.5% | 192.3hPa | 2.7V | 18:12:15 | 01:03:05 | 00:00:00 | |
| DL1XH-west | 2026-09-01 23:54:25 | 56.60674 | 4.18196 | 84° | 62km/h | 12072m | 3.4m/s | 0°C | 0% | 193.5hPa | 2.7V | 18:12:15 | 01:02:54 | 00:00:00 | |
| DL1XH-west | 2026-09-01 23:54:14 | 56.60662 | 4.17880 | 87° | 62km/h | 12028m | 3.7m/s | 0°C | 0% | 0hPa | 2.7V | 18:12:15 | 01:02:43 | 00:00:00 | |
| DL1XH-west | 2026-09-01 23:54:03 | 56.60649 | 4.17584 | 84° | 58km/h | 11987m | 4.1m/s | 0°C | 0% | 0hPa | 2.6V | 18:12:15 | 01:02:32 | 00:00:00 | |
| DL1XH-west | 2026-09-01 23:53:52 | 56.60641 | 4.17307 | 91° | 60km/h | 11947m | 4.5m/s | 0°C | 0% | 0hPa | 2.6V | 18:12:15 | 01:02:22 | 00:00:00 | |
| DL1XH-west | 2026-09-01 23:53:41 | 56.60645 | 4.16997 | 90° | 66km/h | 11902m | 3.5m/s | 0°C | 0% | 0hPa | 2.6V | 18:12:15 | 01:02:11 | 00:00:00 | |
| DJ2DS-15 | 2026-09-01 23:53:27 | 56.60649 | 4.16550 | 90° | 66km/h | 11844m | 4.1m/s | -49.9°C | 2.6% | 200.4hPa | 2.6V | 00:00:00 | 00:00:00 | 00:00:00 | |
| DJ2DS-15 | 2026-09-01 23:53:22 | 56.60650 | 4.16424 | 91° | 68km/h | 11829m | 3.2m/s | -49.7°C | 5.0% | 200.8hPa | 2.6V | 00:00:00 | 01:01:52 | 00:00:00 | |
| DJ2DS-15 | 2026-09-01 23:53:02 | 56.60660 | 4.15810 | 92° | 71km/h | 11748m | 4.7m/s | -49.6°C | 4.8% | 203.3hPa | 2.7V | 00:00:00 | 01:01:32 | 00:00:00 | |
| DJ2DS-15 | 2026-09-01 23:52:42 | 56.60665 | 4.15159 | 92° | 77km/h | 11667m | 3.9m/s | -49.7°C | 5.0% | 205.9hPa | 2.7V | 00:00:00 | 01:01:12 | 00:00:00 | |
| DJ2DS-15 | 2026-09-01 23:52:22 | 56.60684 | 4.14460 | 95° | 78km/h | 11584m | 4.1m/s | -50.1°C | 5.6% | 208.5hPa | 2.7V | 00:00:00 | 01:00:52 | 00:00:00 | |
| DJ2DS-15 | 2026-09-01 23:52:02 | 56.60705 | 4.13750 | 92° | 78km/h | 11505m | 3.5m/s | -50.4°C | 6.3% | 211.0hPa | 2.7V | 00:00:00 | 01:00:32 | 00:00:00 | |
| DJ2DS-15 | 2026-09-01 23:51:42 | 56.60690 | 4.13030 | 84° | 82km/h | 11425m | 4.3m/s | -50.6°C | 7.1% | 213.7hPa | 2.7V | 00:00:00 | 01:00:12 | 00:00:00 | |
| DJ2DS-15 | 2026-09-01 23:51:22 | 56.60633 | 4.12286 | 81° | 80km/h | 11347m | 2.5m/s | -50.6°C | 8.0% | 216.2hPa | 2.7V | 00:00:00 | 00:59:52 | 08:30:00 | |
| DJ2DS-15 | 2026-09-01 23:51:02 | 56.60551 | 4.11562 | 80° | 77km/h | 11268m | 3.2m/s | -52.4°C | 11.3% | 218.8hPa | 2.6V | 00:00:00 | 00:59:32 | 00:00:00 | |
| DJ2DS-15 | 2026-09-01 23:50:42 | 56.60503 | 4.10869 | 86° | 82km/h | 11193m | 3.3m/s | -53.5°C | 14.4% | 221.4hPa | 2.6V | 00:00:00 | 00:59:12 | 00:00:00 | |
| DJ2DS-15 | 2026-09-01 23:50:22 | 56.60474 | 4.10116 | 84° | 88km/h | 11118m | 3.5m/s | -54.8°C | 19.1% | 224.0hPa | 2.6V | 00:00:00 | 00:58:52 | 00:00:00 | |
| DJ2DS-15 | 2026-09-01 23:50:02 | 56.60432 | 4.09323 | 85° | 84km/h | 11038m | 3.6m/s | -55.4°C | 25.9% | 226.8hPa | 2.6V | 00:00:00 | 00:58:32 | 00:00:00 | |
| DJ2DS-15 | 2026-09-01 23:49:50 | 56.60403 | 4.08869 | 84° | 82km/h | 10991m | 3.7m/s | -56.6°C | 28.0% | 228.6hPa | 2.6V | 00:00:00 | 00:00:00 | 00:00:00 | |
| DJ2DS-15 | 2026-09-01 23:49:42 | 56.60383 | 4.08568 | 80° | 88km/h | 10960m | 4.4m/s | -56.4°C | 38.1% | 229.7hPa | 2.6V | 00:00:00 | 00:58:12 | 00:00:00 | |
| DJ2DS-15 | 2026-09-01 23:49:22 | 56.60304 | 4.07773 | 81° | 89km/h | 10881m | 4.1m/s | -56.1°C | 50.9% | 232.6hPa | 2.6V | 00:00:00 | 00:57:52 | 00:00:00 | |
| DJ2DS-15 | 2026-09-01 23:49:14 | 56.60269 | 4.07443 | 78° | 89km/h | 10847m | 3.3m/s | -56.7°C | 52.1% | 233.9hPa | 2.7V | 00:00:00 | 00:00:00 | 00:00:00 | |
| DJ2DS-15 | 2026-09-01 23:49:02 | 56.60208 | 4.06977 | 75° | 80km/h | 10795m | 3.6m/s | -57.6°C | 76.0% | 235.7hPa | 2.7V | 00:00:00 | 00:57:32 | 00:00:00 | |
| DJ2DS-15 | 2026-09-01 23:48:42 | 56.60063 | 4.06294 | 73° | 78km/h | 10707m | 4.1m/s | -57.7°C | 80.6% | 239.0hPa | 2.7V | 00:00:00 | 00:57:12 | 00:00:00 | |
| DJ2DS-15 | 2026-09-01 23:48:22 | 56.59961 | 4.05606 | 78° | 80km/h | 10623m | 4.4m/s | -57.1°C | 80.9% | 242.1hPa | 2.7V | 00:00:00 | 00:56:52 | 08:30:00 | |
| DJ2DS-15 | 2026-09-01 23:48:02 | 56.59860 | 4.04892 | 72° | 84km/h | 10542m | 3.2m/s | -57.0°C | 83.5% | 245.4hPa | 0V | 00:00:00 | 00:56:32 | 00:00:00 | |
| DJ2DS-15 | 2026-09-01 23:47:42 | 56.59710 | 4.04179 | 68° | 78km/h | 10460m | 5.0m/s | -56.3°C | 77.8% | 248.5hPa | 0V | 00:00:00 | 00:56:12 | 00:00:00 | |
| DJ2DS-15 | 2026-09-01 23:47:21 | 56.59551 | 4.03472 | 70° | 77km/h | 10375m | 3.7m/s | 0°C | 0% | 0hPa | 0V | 00:00:00 | 00:55:51 | 00:00:00 | |
| DJ2DS-15 | 2026-09-01 23:46:50 | 56.59331 | 4.02463 | 70° | 75km/h | 10253m | 4.3m/s | -54.7°C | 62.8% | 256.8hPa | 0V | 00:00:00 | 00:00:00 | 00:00:00 | |
| DJ2DS-15 | 2026-09-01 23:46:41 | 56.59275 | 4.02170 | 72° | 71km/h | 10218m | 3.5m/s | 0°C | 0% | 0hPa | 0V | 00:00:00 | 00:55:11 | 00:00:00 | |
| DJ2DS-15 | 2026-09-01 23:46:21 | 56.59171 | 4.01548 | 75° | 73km/h | 10141m | 3.9m/s | 0°C | 0% | 0hPa | 0V | 00:00:00 | 00:54:51 | 00:00:00 | |
| DJ2DS-15 | 2026-09-01 23:46:14 | 56.59134 | 4.01297 | 76° | 73km/h | 10110m | 5.2m/s | -54.3°C | 70.0% | 262.6hPa | 0V | 00:00:00 | 00:00:00 | 00:00:00 | |
| DJ2DS-15 | 2026-09-01 23:46:01 | 56.59087 | 4.00889 | 82° | 77km/h | 10054m | 3.9m/s | 0°C | 0% | 0hPa | 0V | 00:00:00 | 00:54:31 | 00:00:00 | |
| DJ2DS-15 | 2026-09-01 23:45:41 | 56.59022 | 4.00189 | 82° | 77km/h | 9977m | 3.1m/s | 0°C | 0% | 0hPa | 0V | 00:00:00 | 00:54:11 | 00:00:00 | |
| DJ2DS-15 | 2026-09-01 23:45:38 | 56.59010 | 4.00049 | 81° | 77km/h | 9961m | 3.9m/s | 0°C | -1.0% | -1.0hPa | 0V | 00:00:00 | 00:00:00 | 00:00:00 | |
| DJ2DS-15 | 2026-09-01 23:45:21 | 56.58962 | 3.99488 | 80° | 77km/h | 9899m | 3.8m/s | 0°C | 0% | 0hPa | 0V | 00:00:00 | 00:53:51 | 00:00:00 |